<?xml version="1.0" encoding="UTF-8" standalone="no" ?>
<gpx xmlns="http://www.topografix.com/GPX/1/1" xmlns:xsi="http://www.w3.org/2001/XMLSchema-instance" xsi:schemaLocation="http://www.topografix.com/GPX/1/1 http://www.topografix.com/GPX/1/1/gpx.xsd" version="1.1" creator="VisuGPX - https://www.visugpx.com">
  <metadata>
    <name>moissey</name>
    <desc><![CDATA[Belle rando dans une atmosphère printanière]]></desc>
  </metadata>
  <trk>
    <name><![CDATA[moissey 2]]></name>
    <trkseg>
      <trkpt lat="47.19629" lon="5.52419">
        <ele>211</ele>
        <time>2012-03-01T13:49:23Z</time>
      </trkpt>
      <trkpt lat="47.19629" lon="5.52419">
        <ele>211</ele>
        <time>2012-03-01T13:49:24Z</time>
      </trkpt>
      <trkpt lat="47.19629" lon="5.52419">
        <ele>214</ele>
        <time>2012-03-01T13:49:30Z</time>
      </trkpt>
      <trkpt lat="47.19629" lon="5.52419">
        <ele>218</ele>
        <time>2012-03-01T13:49:34Z</time>
      </trkpt>
      <trkpt lat="47.19629" lon="5.52419">
        <ele>218</ele>
        <time>2012-03-01T13:49:35Z</time>
      </trkpt>
      <trkpt lat="47.19629" lon="5.52419">
        <ele>219</ele>
        <time>2012-03-01T13:49:38Z</time>
      </trkpt>
      <trkpt lat="47.19629" lon="5.52419">
        <ele>223</ele>
        <time>2012-03-01T13:49:43Z</time>
      </trkpt>
      <trkpt lat="47.19629" lon="5.52419">
        <ele>228</ele>
        <time>2012-03-01T13:49:51Z</time>
      </trkpt>
      <trkpt lat="47.19629" lon="5.52419">
        <ele>231</ele>
        <time>2012-03-01T13:50:05Z</time>
      </trkpt>
      <trkpt lat="47.19629" lon="5.52419">
        <ele>235</ele>
        <time>2012-03-01T13:50:25Z</time>
      </trkpt>
      <trkpt lat="47.19629" lon="5.52418">
        <ele>235</ele>
        <time>2012-03-01T13:50:29Z</time>
      </trkpt>
      <trkpt lat="47.19626" lon="5.52429">
        <ele>236</ele>
        <time>2012-03-01T13:50:42Z</time>
      </trkpt>
      <trkpt lat="47.19626" lon="5.52433">
        <ele>236</ele>
        <time>2012-03-01T13:50:45Z</time>
      </trkpt>
      <trkpt lat="47.19625" lon="5.52439">
        <ele>236</ele>
        <time>2012-03-01T13:50:50Z</time>
      </trkpt>
      <trkpt lat="47.19625" lon="5.52442">
        <ele>236</ele>
        <time>2012-03-01T13:50:52Z</time>
      </trkpt>
      <trkpt lat="47.19628" lon="5.52446">
        <ele>236</ele>
        <time>2012-03-01T13:50:54Z</time>
      </trkpt>
      <trkpt lat="47.19627" lon="5.52453">
        <ele>237</ele>
        <time>2012-03-01T13:51:00Z</time>
      </trkpt>
      <trkpt lat="47.19633" lon="5.52482">
        <ele>239</ele>
        <time>2012-03-01T13:51:20Z</time>
      </trkpt>
      <trkpt lat="47.1964" lon="5.52502">
        <ele>240</ele>
        <time>2012-03-01T13:51:34Z</time>
      </trkpt>
      <trkpt lat="47.19643" lon="5.5251">
        <ele>241</ele>
        <time>2012-03-01T13:51:53Z</time>
      </trkpt>
      <trkpt lat="47.1965" lon="5.52508">
        <ele>241</ele>
        <time>2012-03-01T13:52:04Z</time>
      </trkpt>
      <trkpt lat="47.19637" lon="5.52512">
        <ele>242</ele>
        <time>2012-03-01T13:52:30Z</time>
      </trkpt>
      <trkpt lat="47.19637" lon="5.5251">
        <ele>241</ele>
        <time>2012-03-01T13:52:50Z</time>
      </trkpt>
      <trkpt lat="47.1964" lon="5.52517">
        <ele>242</ele>
        <time>2012-03-01T13:53:08Z</time>
      </trkpt>
      <trkpt lat="47.19636" lon="5.52521">
        <ele>242</ele>
        <time>2012-03-01T13:53:28Z</time>
      </trkpt>
      <trkpt lat="47.19638" lon="5.52524">
        <ele>242</ele>
        <time>2012-03-01T13:53:52Z</time>
      </trkpt>
      <trkpt lat="47.19638" lon="5.52526">
        <ele>242</ele>
        <time>2012-03-01T13:54:16Z</time>
      </trkpt>
      <trkpt lat="47.19632" lon="5.52528">
        <ele>243</ele>
        <time>2012-03-01T13:54:41Z</time>
      </trkpt>
      <trkpt lat="47.19634" lon="5.52531">
        <ele>243</ele>
        <time>2012-03-01T13:55:18Z</time>
      </trkpt>
      <trkpt lat="47.19643" lon="5.52536">
        <ele>243</ele>
        <time>2012-03-01T13:56:30Z</time>
      </trkpt>
      <trkpt lat="47.19645" lon="5.52539">
        <ele>243</ele>
        <time>2012-03-01T13:56:54Z</time>
      </trkpt>
      <trkpt lat="47.19644" lon="5.52539">
        <ele>242</ele>
        <time>2012-03-01T13:56:56Z</time>
      </trkpt>
      <trkpt lat="47.19649" lon="5.5252">
        <ele>244</ele>
        <time>2012-03-01T13:57:42Z</time>
      </trkpt>
      <trkpt lat="47.19652" lon="5.52514">
        <ele>244</ele>
        <time>2012-03-01T13:57:47Z</time>
      </trkpt>
      <trkpt lat="47.19655" lon="5.52507">
        <ele>246</ele>
        <time>2012-03-01T13:57:54Z</time>
      </trkpt>
      <trkpt lat="47.19657" lon="5.52498">
        <ele>245</ele>
        <time>2012-03-01T13:58:01Z</time>
      </trkpt>
      <trkpt lat="47.19658" lon="5.52496">
        <ele>246</ele>
        <time>2012-03-01T13:58:03Z</time>
      </trkpt>
      <trkpt lat="47.19659" lon="5.52491">
        <ele>247</ele>
        <time>2012-03-01T13:58:06Z</time>
      </trkpt>
      <trkpt lat="47.19662" lon="5.52486">
        <ele>247</ele>
        <time>2012-03-01T13:58:11Z</time>
      </trkpt>
      <trkpt lat="47.19674" lon="5.52459">
        <ele>249</ele>
        <time>2012-03-01T13:58:29Z</time>
      </trkpt>
      <trkpt lat="47.19677" lon="5.52457">
        <ele>249</ele>
        <time>2012-03-01T13:58:33Z</time>
      </trkpt>
      <trkpt lat="47.19684" lon="5.5246">
        <ele>248</ele>
        <time>2012-03-01T13:58:39Z</time>
      </trkpt>
      <trkpt lat="47.1969" lon="5.52456">
        <ele>251</ele>
        <time>2012-03-01T13:58:47Z</time>
      </trkpt>
      <trkpt lat="47.19699" lon="5.52463">
        <ele>250</ele>
        <time>2012-03-01T13:58:54Z</time>
      </trkpt>
      <trkpt lat="47.19709" lon="5.52474">
        <ele>251</ele>
        <time>2012-03-01T13:59:03Z</time>
      </trkpt>
      <trkpt lat="47.1971" lon="5.52481">
        <ele>251</ele>
        <time>2012-03-01T13:59:07Z</time>
      </trkpt>
      <trkpt lat="47.19719" lon="5.52481">
        <ele>252</ele>
        <time>2012-03-01T13:59:11Z</time>
      </trkpt>
      <trkpt lat="47.19728" lon="5.5249">
        <ele>252</ele>
        <time>2012-03-01T13:59:21Z</time>
      </trkpt>
      <trkpt lat="47.19736" lon="5.52498">
        <ele>252</ele>
        <time>2012-03-01T13:59:29Z</time>
      </trkpt>
      <trkpt lat="47.19743" lon="5.52505">
        <ele>252</ele>
        <time>2012-03-01T13:59:36Z</time>
      </trkpt>
      <trkpt lat="47.19759" lon="5.52515">
        <ele>254</ele>
        <time>2012-03-01T13:59:48Z</time>
      </trkpt>
      <trkpt lat="47.19775" lon="5.52525">
        <ele>255</ele>
        <time>2012-03-01T14:00:04Z</time>
      </trkpt>
      <trkpt lat="47.1978" lon="5.52534">
        <ele>255</ele>
        <time>2012-03-01T14:00:08Z</time>
      </trkpt>
      <trkpt lat="47.19778" lon="5.52542">
        <ele>256</ele>
        <time>2012-03-01T14:00:14Z</time>
      </trkpt>
      <trkpt lat="47.19768" lon="5.5258">
        <ele>257</ele>
        <time>2012-03-01T14:00:32Z</time>
      </trkpt>
      <trkpt lat="47.19759" lon="5.52603">
        <ele>256</ele>
        <time>2012-03-01T14:00:45Z</time>
      </trkpt>
      <trkpt lat="47.19754" lon="5.52629">
        <ele>257</ele>
        <time>2012-03-01T14:00:59Z</time>
      </trkpt>
      <trkpt lat="47.19744" lon="5.52657">
        <ele>257</ele>
        <time>2012-03-01T14:01:16Z</time>
      </trkpt>
      <trkpt lat="47.19731" lon="5.52685">
        <ele>258</ele>
        <time>2012-03-01T14:01:34Z</time>
      </trkpt>
      <trkpt lat="47.19728" lon="5.52697">
        <ele>260</ele>
        <time>2012-03-01T14:01:41Z</time>
      </trkpt>
      <trkpt lat="47.19723" lon="5.5272">
        <ele>260</ele>
        <time>2012-03-01T14:01:54Z</time>
      </trkpt>
      <trkpt lat="47.19722" lon="5.52737">
        <ele>262</ele>
        <time>2012-03-01T14:02:06Z</time>
      </trkpt>
      <trkpt lat="47.19724" lon="5.52747">
        <ele>262</ele>
        <time>2012-03-01T14:02:12Z</time>
      </trkpt>
      <trkpt lat="47.19725" lon="5.52781">
        <ele>264</ele>
        <time>2012-03-01T14:02:31Z</time>
      </trkpt>
      <trkpt lat="47.19732" lon="5.52812">
        <ele>263</ele>
        <time>2012-03-01T14:02:49Z</time>
      </trkpt>
      <trkpt lat="47.19747" lon="5.52852">
        <ele>264</ele>
        <time>2012-03-01T14:03:13Z</time>
      </trkpt>
      <trkpt lat="47.19765" lon="5.52901">
        <ele>264</ele>
        <time>2012-03-01T14:03:43Z</time>
      </trkpt>
      <trkpt lat="47.19767" lon="5.52908">
        <ele>265</ele>
        <time>2012-03-01T14:03:47Z</time>
      </trkpt>
      <trkpt lat="47.1977" lon="5.52922">
        <ele>265</ele>
        <time>2012-03-01T14:03:54Z</time>
      </trkpt>
      <trkpt lat="47.19774" lon="5.5294">
        <ele>265</ele>
        <time>2012-03-01T14:04:04Z</time>
      </trkpt>
      <trkpt lat="47.19776" lon="5.52952">
        <ele>265</ele>
        <time>2012-03-01T14:04:10Z</time>
      </trkpt>
      <trkpt lat="47.19778" lon="5.52961">
        <ele>266</ele>
        <time>2012-03-01T14:04:15Z</time>
      </trkpt>
      <trkpt lat="47.19779" lon="5.52995">
        <ele>266</ele>
        <time>2012-03-01T14:04:32Z</time>
      </trkpt>
      <trkpt lat="47.19779" lon="5.53046">
        <ele>267</ele>
        <time>2012-03-01T14:04:59Z</time>
      </trkpt>
      <trkpt lat="47.19789" lon="5.53082">
        <ele>268</ele>
        <time>2012-03-01T14:05:21Z</time>
      </trkpt>
      <trkpt lat="47.19796" lon="5.53107">
        <ele>269</ele>
        <time>2012-03-01T14:05:38Z</time>
      </trkpt>
      <trkpt lat="47.19809" lon="5.5313">
        <ele>270</ele>
        <time>2012-03-01T14:05:52Z</time>
      </trkpt>
      <trkpt lat="47.19824" lon="5.53149">
        <ele>271</ele>
        <time>2012-03-01T14:06:07Z</time>
      </trkpt>
      <trkpt lat="47.1985" lon="5.53171">
        <ele>272</ele>
        <time>2012-03-01T14:06:30Z</time>
      </trkpt>
      <trkpt lat="47.19878" lon="5.5319">
        <ele>274</ele>
        <time>2012-03-01T14:06:54Z</time>
      </trkpt>
      <trkpt lat="47.19895" lon="5.53202">
        <ele>275</ele>
        <time>2012-03-01T14:07:10Z</time>
      </trkpt>
      <trkpt lat="47.19912" lon="5.53214">
        <ele>276</ele>
        <time>2012-03-01T14:07:26Z</time>
      </trkpt>
      <trkpt lat="47.19924" lon="5.53225">
        <ele>276</ele>
        <time>2012-03-01T14:07:37Z</time>
      </trkpt>
      <trkpt lat="47.19925" lon="5.53226">
        <ele>276</ele>
        <time>2012-03-01T14:07:38Z</time>
      </trkpt>
      <trkpt lat="47.19931" lon="5.5323">
        <ele>276</ele>
        <time>2012-03-01T14:07:42Z</time>
      </trkpt>
      <trkpt lat="47.19951" lon="5.53241">
        <ele>277</ele>
        <time>2012-03-01T14:07:59Z</time>
      </trkpt>
      <trkpt lat="47.19974" lon="5.53257">
        <ele>277</ele>
        <time>2012-03-01T14:08:17Z</time>
      </trkpt>
      <trkpt lat="47.19992" lon="5.53277">
        <ele>278</ele>
        <time>2012-03-01T14:08:35Z</time>
      </trkpt>
      <trkpt lat="47.19996" lon="5.53283">
        <ele>278</ele>
        <time>2012-03-01T14:08:40Z</time>
      </trkpt>
      <trkpt lat="47.19998" lon="5.53289">
        <ele>278</ele>
        <time>2012-03-01T14:08:43Z</time>
      </trkpt>
      <trkpt lat="47.20004" lon="5.53309">
        <ele>278</ele>
        <time>2012-03-01T14:08:55Z</time>
      </trkpt>
      <trkpt lat="47.2001" lon="5.53343">
        <ele>279</ele>
        <time>2012-03-01T14:09:13Z</time>
      </trkpt>
      <trkpt lat="47.20015" lon="5.53392">
        <ele>279</ele>
        <time>2012-03-01T14:09:38Z</time>
      </trkpt>
      <trkpt lat="47.20018" lon="5.53407">
        <ele>280</ele>
        <time>2012-03-01T14:09:47Z</time>
      </trkpt>
      <trkpt lat="47.20018" lon="5.53415">
        <ele>280</ele>
        <time>2012-03-01T14:09:51Z</time>
      </trkpt>
      <trkpt lat="47.20031" lon="5.53461">
        <ele>281</ele>
        <time>2012-03-01T14:10:17Z</time>
      </trkpt>
      <trkpt lat="47.20044" lon="5.53499">
        <ele>283</ele>
        <time>2012-03-01T14:10:40Z</time>
      </trkpt>
      <trkpt lat="47.20056" lon="5.53535">
        <ele>284</ele>
        <time>2012-03-01T14:11:01Z</time>
      </trkpt>
      <trkpt lat="47.2007" lon="5.53565">
        <ele>285</ele>
        <time>2012-03-01T14:11:19Z</time>
      </trkpt>
      <trkpt lat="47.20079" lon="5.5359">
        <ele>286</ele>
        <time>2012-03-01T14:11:34Z</time>
      </trkpt>
      <trkpt lat="47.20082" lon="5.536">
        <ele>286</ele>
        <time>2012-03-01T14:11:40Z</time>
      </trkpt>
      <trkpt lat="47.2009" lon="5.53627">
        <ele>287</ele>
        <time>2012-03-01T14:11:56Z</time>
      </trkpt>
      <trkpt lat="47.20091" lon="5.53631">
        <ele>288</ele>
        <time>2012-03-01T14:11:58Z</time>
      </trkpt>
      <trkpt lat="47.201" lon="5.53665">
        <ele>289</ele>
        <time>2012-03-01T14:12:18Z</time>
      </trkpt>
      <trkpt lat="47.20108" lon="5.53695">
        <ele>289</ele>
        <time>2012-03-01T14:12:35Z</time>
      </trkpt>
      <trkpt lat="47.2011" lon="5.53706">
        <ele>289</ele>
        <time>2012-03-01T14:12:42Z</time>
      </trkpt>
      <trkpt lat="47.20111" lon="5.53719">
        <ele>290</ele>
        <time>2012-03-01T14:12:50Z</time>
      </trkpt>
      <trkpt lat="47.20111" lon="5.53726">
        <ele>291</ele>
        <time>2012-03-01T14:12:54Z</time>
      </trkpt>
      <trkpt lat="47.2011" lon="5.53736">
        <ele>291</ele>
        <time>2012-03-01T14:12:59Z</time>
      </trkpt>
      <trkpt lat="47.20112" lon="5.53744">
        <ele>291</ele>
        <time>2012-03-01T14:13:04Z</time>
      </trkpt>
      <trkpt lat="47.20117" lon="5.53771">
        <ele>292</ele>
        <time>2012-03-01T14:13:20Z</time>
      </trkpt>
      <trkpt lat="47.20117" lon="5.5378">
        <ele>293</ele>
        <time>2012-03-01T14:13:25Z</time>
      </trkpt>
      <trkpt lat="47.20121" lon="5.53812">
        <ele>295</ele>
        <time>2012-03-01T14:13:44Z</time>
      </trkpt>
      <trkpt lat="47.20123" lon="5.53817">
        <ele>295</ele>
        <time>2012-03-01T14:13:47Z</time>
      </trkpt>
      <trkpt lat="47.20125" lon="5.53823">
        <ele>291</ele>
        <time>2012-03-01T14:13:51Z</time>
      </trkpt>
      <trkpt lat="47.20126" lon="5.53825">
        <ele>296</ele>
        <time>2012-03-01T14:13:52Z</time>
      </trkpt>
      <trkpt lat="47.20141" lon="5.5385">
        <ele>298</ele>
        <time>2012-03-01T14:14:10Z</time>
      </trkpt>
      <trkpt lat="47.2016" lon="5.53873">
        <ele>299</ele>
        <time>2012-03-01T14:14:30Z</time>
      </trkpt>
      <trkpt lat="47.20174" lon="5.53893">
        <ele>300</ele>
        <time>2012-03-01T14:14:45Z</time>
      </trkpt>
      <trkpt lat="47.20187" lon="5.53917">
        <ele>302</ele>
        <time>2012-03-01T14:15:05Z</time>
      </trkpt>
      <trkpt lat="47.20197" lon="5.53939">
        <ele>304</ele>
        <time>2012-03-01T14:15:22Z</time>
      </trkpt>
      <trkpt lat="47.20205" lon="5.53952">
        <ele>305</ele>
        <time>2012-03-01T14:15:34Z</time>
      </trkpt>
      <trkpt lat="47.20224" lon="5.53966">
        <ele>306</ele>
        <time>2012-03-01T14:15:50Z</time>
      </trkpt>
      <trkpt lat="47.20226" lon="5.53968">
        <ele>306</ele>
        <time>2012-03-01T14:15:53Z</time>
      </trkpt>
      <trkpt lat="47.20225" lon="5.53978">
        <ele>306</ele>
        <time>2012-03-01T14:16:00Z</time>
      </trkpt>
      <trkpt lat="47.20219" lon="5.53987">
        <ele>307</ele>
        <time>2012-03-01T14:16:07Z</time>
      </trkpt>
      <trkpt lat="47.20215" lon="5.54001">
        <ele>308</ele>
        <time>2012-03-01T14:16:21Z</time>
      </trkpt>
      <trkpt lat="47.20208" lon="5.54008">
        <ele>309</ele>
        <time>2012-03-01T14:16:37Z</time>
      </trkpt>
      <trkpt lat="47.20203" lon="5.54017">
        <ele>309</ele>
        <time>2012-03-01T14:16:53Z</time>
      </trkpt>
      <trkpt lat="47.20195" lon="5.54027">
        <ele>310</ele>
        <time>2012-03-01T14:20:33Z</time>
      </trkpt>
      <trkpt lat="47.20183" lon="5.5404">
        <ele>311</ele>
        <time>2012-03-01T14:20:45Z</time>
      </trkpt>
      <trkpt lat="47.20178" lon="5.54048">
        <ele>311</ele>
        <time>2012-03-01T14:20:52Z</time>
      </trkpt>
      <trkpt lat="47.20165" lon="5.54056">
        <ele>310</ele>
        <time>2012-03-01T14:21:00Z</time>
      </trkpt>
      <trkpt lat="47.20155" lon="5.54068">
        <ele>309</ele>
        <time>2012-03-01T14:21:12Z</time>
      </trkpt>
      <trkpt lat="47.20141" lon="5.54081">
        <ele>306</ele>
        <time>2012-03-01T14:21:26Z</time>
      </trkpt>
      <trkpt lat="47.20137" lon="5.54084">
        <ele>306</ele>
        <time>2012-03-01T14:21:28Z</time>
      </trkpt>
      <trkpt lat="47.20135" lon="5.54085">
        <ele>305</ele>
        <time>2012-03-01T14:21:31Z</time>
      </trkpt>
      <trkpt lat="47.20117" lon="5.54101">
        <ele>302</ele>
        <time>2012-03-01T14:21:45Z</time>
      </trkpt>
      <trkpt lat="47.20106" lon="5.54111">
        <ele>301</ele>
        <time>2012-03-01T14:21:56Z</time>
      </trkpt>
      <trkpt lat="47.20101" lon="5.54117">
        <ele>301</ele>
        <time>2012-03-01T14:22:02Z</time>
      </trkpt>
      <trkpt lat="47.20098" lon="5.54121">
        <ele>301</ele>
        <time>2012-03-01T14:22:06Z</time>
      </trkpt>
      <trkpt lat="47.20097" lon="5.54129">
        <ele>301</ele>
        <time>2012-03-01T14:22:11Z</time>
      </trkpt>
      <trkpt lat="47.20098" lon="5.54136">
        <ele>301</ele>
        <time>2012-03-01T14:22:16Z</time>
      </trkpt>
      <trkpt lat="47.20103" lon="5.54147">
        <ele>302</ele>
        <time>2012-03-01T14:22:24Z</time>
      </trkpt>
      <trkpt lat="47.20108" lon="5.54156">
        <ele>302</ele>
        <time>2012-03-01T14:22:29Z</time>
      </trkpt>
      <trkpt lat="47.20111" lon="5.54159">
        <ele>303</ele>
        <time>2012-03-01T14:22:32Z</time>
      </trkpt>
      <trkpt lat="47.20113" lon="5.54169">
        <ele>303</ele>
        <time>2012-03-01T14:22:38Z</time>
      </trkpt>
      <trkpt lat="47.20116" lon="5.54174">
        <ele>304</ele>
        <time>2012-03-01T14:22:42Z</time>
      </trkpt>
      <trkpt lat="47.20125" lon="5.54198">
        <ele>305</ele>
        <time>2012-03-01T14:22:57Z</time>
      </trkpt>
      <trkpt lat="47.20126" lon="5.542">
        <ele>305</ele>
        <time>2012-03-01T14:22:58Z</time>
      </trkpt>
      <trkpt lat="47.20136" lon="5.54221">
        <ele>307</ele>
        <time>2012-03-01T14:23:12Z</time>
      </trkpt>
      <trkpt lat="47.20138" lon="5.54225">
        <ele>307</ele>
        <time>2012-03-01T14:23:15Z</time>
      </trkpt>
      <trkpt lat="47.20145" lon="5.54244">
        <ele>308</ele>
        <time>2012-03-01T14:23:30Z</time>
      </trkpt>
      <trkpt lat="47.20149" lon="5.54251">
        <ele>309</ele>
        <time>2012-03-01T14:23:36Z</time>
      </trkpt>
      <trkpt lat="47.20158" lon="5.54258">
        <ele>310</ele>
        <time>2012-03-01T14:23:43Z</time>
      </trkpt>
      <trkpt lat="47.2016" lon="5.54262">
        <ele>310</ele>
        <time>2012-03-01T14:23:46Z</time>
      </trkpt>
      <trkpt lat="47.20161" lon="5.54264">
        <ele>311</ele>
        <time>2012-03-01T14:23:48Z</time>
      </trkpt>
      <trkpt lat="47.20163" lon="5.5427">
        <ele>311</ele>
        <time>2012-03-01T14:23:52Z</time>
      </trkpt>
      <trkpt lat="47.20166" lon="5.54274">
        <ele>311</ele>
        <time>2012-03-01T14:23:55Z</time>
      </trkpt>
      <trkpt lat="47.20167" lon="5.54279">
        <ele>312</ele>
        <time>2012-03-01T14:23:58Z</time>
      </trkpt>
      <trkpt lat="47.20172" lon="5.54282">
        <ele>312</ele>
        <time>2012-03-01T14:24:02Z</time>
      </trkpt>
      <trkpt lat="47.20174" lon="5.54288">
        <ele>312</ele>
        <time>2012-03-01T14:24:06Z</time>
      </trkpt>
      <trkpt lat="47.20176" lon="5.5429">
        <ele>313</ele>
        <time>2012-03-01T14:24:08Z</time>
      </trkpt>
      <trkpt lat="47.20176" lon="5.54295">
        <ele>313</ele>
        <time>2012-03-01T14:24:11Z</time>
      </trkpt>
      <trkpt lat="47.20187" lon="5.54307">
        <ele>314</ele>
        <time>2012-03-01T14:24:22Z</time>
      </trkpt>
      <trkpt lat="47.20193" lon="5.54315">
        <ele>315</ele>
        <time>2012-03-01T14:24:30Z</time>
      </trkpt>
      <trkpt lat="47.20199" lon="5.54322">
        <ele>316</ele>
        <time>2012-03-01T14:24:38Z</time>
      </trkpt>
      <trkpt lat="47.20204" lon="5.54327">
        <ele>317</ele>
        <time>2012-03-01T14:24:45Z</time>
      </trkpt>
      <trkpt lat="47.20206" lon="5.54329">
        <ele>318</ele>
        <time>2012-03-01T14:24:48Z</time>
      </trkpt>
      <trkpt lat="47.20216" lon="5.54332">
        <ele>319</ele>
        <time>2012-03-01T14:24:57Z</time>
      </trkpt>
      <trkpt lat="47.20221" lon="5.54337">
        <ele>320</ele>
        <time>2012-03-01T14:25:03Z</time>
      </trkpt>
      <trkpt lat="47.20242" lon="5.54353">
        <ele>323</ele>
        <time>2012-03-01T14:25:25Z</time>
      </trkpt>
      <trkpt lat="47.20254" lon="5.54363">
        <ele>325</ele>
        <time>2012-03-01T14:25:35Z</time>
      </trkpt>
      <trkpt lat="47.20271" lon="5.54383">
        <ele>326</ele>
        <time>2012-03-01T14:25:54Z</time>
      </trkpt>
      <trkpt lat="47.20286" lon="5.54406">
        <ele>327</ele>
        <time>2012-03-01T14:26:14Z</time>
      </trkpt>
      <trkpt lat="47.20305" lon="5.54432">
        <ele>329</ele>
        <time>2012-03-01T14:26:37Z</time>
      </trkpt>
      <trkpt lat="47.2031" lon="5.5444">
        <ele>330</ele>
        <time>2012-03-01T14:26:43Z</time>
      </trkpt>
      <trkpt lat="47.20314" lon="5.54445">
        <ele>330</ele>
        <time>2012-03-01T14:26:47Z</time>
      </trkpt>
      <trkpt lat="47.20315" lon="5.54448">
        <ele>330</ele>
        <time>2012-03-01T14:26:49Z</time>
      </trkpt>
      <trkpt lat="47.20327" lon="5.5447">
        <ele>332</ele>
        <time>2012-03-01T14:27:05Z</time>
      </trkpt>
      <trkpt lat="47.20327" lon="5.54471">
        <ele>332</ele>
        <time>2012-03-01T14:27:06Z</time>
      </trkpt>
      <trkpt lat="47.20328" lon="5.54474">
        <ele>332</ele>
        <time>2012-03-01T14:27:08Z</time>
      </trkpt>
      <trkpt lat="47.20331" lon="5.54486">
        <ele>333</ele>
        <time>2012-03-01T14:27:15Z</time>
      </trkpt>
      <trkpt lat="47.20335" lon="5.54518">
        <ele>334</ele>
        <time>2012-03-01T14:27:35Z</time>
      </trkpt>
      <trkpt lat="47.20347" lon="5.54547">
        <ele>335</ele>
        <time>2012-03-01T14:27:53Z</time>
      </trkpt>
      <trkpt lat="47.20363" lon="5.54573">
        <ele>337</ele>
        <time>2012-03-01T14:28:13Z</time>
      </trkpt>
      <trkpt lat="47.20373" lon="5.54585">
        <ele>337</ele>
        <time>2012-03-01T14:28:22Z</time>
      </trkpt>
      <trkpt lat="47.20374" lon="5.54589">
        <ele>336</ele>
        <time>2012-03-01T14:28:24Z</time>
      </trkpt>
      <trkpt lat="47.20383" lon="5.54603">
        <ele>337</ele>
        <time>2012-03-01T14:28:34Z</time>
      </trkpt>
      <trkpt lat="47.20402" lon="5.54622">
        <ele>337</ele>
        <time>2012-03-01T14:28:53Z</time>
      </trkpt>
      <trkpt lat="47.20419" lon="5.54641">
        <ele>336</ele>
        <time>2012-03-01T14:29:10Z</time>
      </trkpt>
      <trkpt lat="47.20419" lon="5.54643">
        <ele>336</ele>
        <time>2012-03-01T14:29:11Z</time>
      </trkpt>
      <trkpt lat="47.20432" lon="5.5467">
        <ele>334</ele>
        <time>2012-03-01T14:29:28Z</time>
      </trkpt>
      <trkpt lat="47.20439" lon="5.54687">
        <ele>334</ele>
        <time>2012-03-01T14:29:37Z</time>
      </trkpt>
      <trkpt lat="47.20442" lon="5.54692">
        <ele>333</ele>
        <time>2012-03-01T14:29:40Z</time>
      </trkpt>
      <trkpt lat="47.20443" lon="5.54694">
        <ele>333</ele>
        <time>2012-03-01T14:29:42Z</time>
      </trkpt>
      <trkpt lat="47.20458" lon="5.54707">
        <ele>332</ele>
        <time>2012-03-01T14:29:57Z</time>
      </trkpt>
      <trkpt lat="47.20478" lon="5.54714">
        <ele>331</ele>
        <time>2012-03-01T14:30:14Z</time>
      </trkpt>
      <trkpt lat="47.20501" lon="5.54717">
        <ele>331</ele>
        <time>2012-03-01T14:30:32Z</time>
      </trkpt>
      <trkpt lat="47.20524" lon="5.54714">
        <ele>329</ele>
        <time>2012-03-01T14:30:50Z</time>
      </trkpt>
      <trkpt lat="47.20546" lon="5.54697">
        <ele>330</ele>
        <time>2012-03-01T14:31:08Z</time>
      </trkpt>
      <trkpt lat="47.20568" lon="5.5469">
        <ele>330</ele>
        <time>2012-03-01T14:31:25Z</time>
      </trkpt>
      <trkpt lat="47.20588" lon="5.54688">
        <ele>330</ele>
        <time>2012-03-01T14:31:41Z</time>
      </trkpt>
      <trkpt lat="47.20589" lon="5.54688">
        <ele>330</ele>
        <time>2012-03-01T14:31:42Z</time>
      </trkpt>
      <trkpt lat="47.20603" lon="5.54708">
        <ele>329</ele>
        <time>2012-03-01T14:31:56Z</time>
      </trkpt>
      <trkpt lat="47.20622" lon="5.54736">
        <ele>329</ele>
        <time>2012-03-01T14:32:12Z</time>
      </trkpt>
      <trkpt lat="47.2063" lon="5.5474">
        <ele>329</ele>
        <time>2012-03-01T14:32:24Z</time>
      </trkpt>
      <trkpt lat="47.20635" lon="5.54717">
        <ele>329</ele>
        <time>2012-03-01T14:32:43Z</time>
      </trkpt>
      <trkpt lat="47.20639" lon="5.54695">
        <ele>330</ele>
        <time>2012-03-01T14:33:12Z</time>
      </trkpt>
      <trkpt lat="47.20639" lon="5.54692">
        <ele>330</ele>
        <time>2012-03-01T14:33:36Z</time>
      </trkpt>
      <trkpt lat="47.20639" lon="5.54691">
        <ele>330</ele>
        <time>2012-03-01T14:33:40Z</time>
      </trkpt>
      <trkpt lat="47.20644" lon="5.54685">
        <ele>330</ele>
        <time>2012-03-01T14:33:45Z</time>
      </trkpt>
      <trkpt lat="47.20647" lon="5.54672">
        <ele>330</ele>
        <time>2012-03-01T14:34:01Z</time>
      </trkpt>
      <trkpt lat="47.20647" lon="5.54673">
        <ele>330</ele>
        <time>2012-03-01T14:34:45Z</time>
      </trkpt>
      <trkpt lat="47.20647" lon="5.54678">
        <ele>330</ele>
        <time>2012-03-01T14:35:12Z</time>
      </trkpt>
      <trkpt lat="47.20647" lon="5.54678">
        <ele>330</ele>
        <time>2012-03-01T14:36:01Z</time>
      </trkpt>
      <trkpt lat="47.20654" lon="5.5466">
        <ele>330</ele>
        <time>2012-03-01T14:36:53Z</time>
      </trkpt>
      <trkpt lat="47.20668" lon="5.54642">
        <ele>329</ele>
        <time>2012-03-01T14:37:13Z</time>
      </trkpt>
      <trkpt lat="47.20679" lon="5.54618">
        <ele>327</ele>
        <time>2012-03-01T14:37:29Z</time>
      </trkpt>
      <trkpt lat="47.20698" lon="5.54595">
        <ele>325</ele>
        <time>2012-03-01T14:37:48Z</time>
      </trkpt>
      <trkpt lat="47.20706" lon="5.54579">
        <ele>324</ele>
        <time>2012-03-01T14:38:00Z</time>
      </trkpt>
      <trkpt lat="47.2071" lon="5.54576">
        <ele>323</ele>
        <time>2012-03-01T14:38:04Z</time>
      </trkpt>
      <trkpt lat="47.20712" lon="5.54573">
        <ele>323</ele>
        <time>2012-03-01T14:38:06Z</time>
      </trkpt>
      <trkpt lat="47.20712" lon="5.54569">
        <ele>322</ele>
        <time>2012-03-01T14:38:08Z</time>
      </trkpt>
      <trkpt lat="47.20715" lon="5.54563">
        <ele>322</ele>
        <time>2012-03-01T14:38:12Z</time>
      </trkpt>
      <trkpt lat="47.20725" lon="5.54532">
        <ele>319</ele>
        <time>2012-03-01T14:38:30Z</time>
      </trkpt>
      <trkpt lat="47.20726" lon="5.54528">
        <ele>318</ele>
        <time>2012-03-01T14:38:33Z</time>
      </trkpt>
      <trkpt lat="47.20729" lon="5.5452">
        <ele>317</ele>
        <time>2012-03-01T14:38:38Z</time>
      </trkpt>
      <trkpt lat="47.20735" lon="5.54497">
        <ele>314</ele>
        <time>2012-03-01T14:38:53Z</time>
      </trkpt>
      <trkpt lat="47.20738" lon="5.54488">
        <ele>313</ele>
        <time>2012-03-01T14:38:59Z</time>
      </trkpt>
      <trkpt lat="47.20745" lon="5.54468">
        <ele>310</ele>
        <time>2012-03-01T14:39:13Z</time>
      </trkpt>
      <trkpt lat="47.20753" lon="5.54442">
        <ele>306</ele>
        <time>2012-03-01T14:39:31Z</time>
      </trkpt>
      <trkpt lat="47.20761" lon="5.54418">
        <ele>303</ele>
        <time>2012-03-01T14:39:47Z</time>
      </trkpt>
      <trkpt lat="47.20771" lon="5.54389">
        <ele>300</ele>
        <time>2012-03-01T14:40:06Z</time>
      </trkpt>
      <trkpt lat="47.20786" lon="5.54366">
        <ele>296</ele>
        <time>2012-03-01T14:40:23Z</time>
      </trkpt>
      <trkpt lat="47.20796" lon="5.5435">
        <ele>293</ele>
        <time>2012-03-01T14:40:36Z</time>
      </trkpt>
      <trkpt lat="47.20809" lon="5.54331">
        <ele>290</ele>
        <time>2012-03-01T14:40:51Z</time>
      </trkpt>
      <trkpt lat="47.2082" lon="5.54307">
        <ele>287</ele>
        <time>2012-03-01T14:41:07Z</time>
      </trkpt>
      <trkpt lat="47.20834" lon="5.54286">
        <ele>284</ele>
        <time>2012-03-01T14:41:24Z</time>
      </trkpt>
      <trkpt lat="47.20842" lon="5.54275">
        <ele>281</ele>
        <time>2012-03-01T14:41:34Z</time>
      </trkpt>
      <trkpt lat="47.20854" lon="5.54258">
        <ele>279</ele>
        <time>2012-03-01T14:41:50Z</time>
      </trkpt>
      <trkpt lat="47.20861" lon="5.54256">
        <ele>278</ele>
        <time>2012-03-01T14:41:56Z</time>
      </trkpt>
      <trkpt lat="47.20878" lon="5.54279">
        <ele>277</ele>
        <time>2012-03-01T14:42:14Z</time>
      </trkpt>
      <trkpt lat="47.20894" lon="5.54304">
        <ele>278</ele>
        <time>2012-03-01T14:42:33Z</time>
      </trkpt>
      <trkpt lat="47.20907" lon="5.54326">
        <ele>279</ele>
        <time>2012-03-01T14:42:49Z</time>
      </trkpt>
      <trkpt lat="47.2092" lon="5.54351">
        <ele>280</ele>
        <time>2012-03-01T14:43:08Z</time>
      </trkpt>
      <trkpt lat="47.20932" lon="5.54372">
        <ele>281</ele>
        <time>2012-03-01T14:43:23Z</time>
      </trkpt>
      <trkpt lat="47.20945" lon="5.54388">
        <ele>281</ele>
        <time>2012-03-01T14:43:40Z</time>
      </trkpt>
      <trkpt lat="47.20946" lon="5.54389">
        <ele>282</ele>
        <time>2012-03-01T14:43:41Z</time>
      </trkpt>
      <trkpt lat="47.20962" lon="5.54408">
        <ele>283</ele>
        <time>2012-03-01T14:43:57Z</time>
      </trkpt>
      <trkpt lat="47.20976" lon="5.54422">
        <ele>285</ele>
        <time>2012-03-01T14:44:13Z</time>
      </trkpt>
      <trkpt lat="47.20992" lon="5.5444">
        <ele>286</ele>
        <time>2012-03-01T14:44:28Z</time>
      </trkpt>
      <trkpt lat="47.21009" lon="5.54462">
        <ele>288</ele>
        <time>2012-03-01T14:44:50Z</time>
      </trkpt>
      <trkpt lat="47.21021" lon="5.54478">
        <ele>289</ele>
        <time>2012-03-01T14:45:06Z</time>
      </trkpt>
      <trkpt lat="47.21028" lon="5.54484">
        <ele>290</ele>
        <time>2012-03-01T14:45:13Z</time>
      </trkpt>
      <trkpt lat="47.21042" lon="5.54499">
        <ele>291</ele>
        <time>2012-03-01T14:45:29Z</time>
      </trkpt>
      <trkpt lat="47.21061" lon="5.54521">
        <ele>292</ele>
        <time>2012-03-01T14:45:50Z</time>
      </trkpt>
      <trkpt lat="47.21074" lon="5.54539">
        <ele>294</ele>
        <time>2012-03-01T14:46:05Z</time>
      </trkpt>
      <trkpt lat="47.21092" lon="5.5456">
        <ele>295</ele>
        <time>2012-03-01T14:46:25Z</time>
      </trkpt>
      <trkpt lat="47.21102" lon="5.54562">
        <ele>295</ele>
        <time>2012-03-01T14:46:42Z</time>
      </trkpt>
      <trkpt lat="47.21102" lon="5.54558">
        <ele>295</ele>
        <time>2012-03-01T14:46:47Z</time>
      </trkpt>
      <trkpt lat="47.21101" lon="5.54534">
        <ele>294</ele>
        <time>2012-03-01T14:47:03Z</time>
      </trkpt>
      <trkpt lat="47.21105" lon="5.54496">
        <ele>293</ele>
        <time>2012-03-01T14:47:25Z</time>
      </trkpt>
      <trkpt lat="47.21111" lon="5.54458">
        <ele>292</ele>
        <time>2012-03-01T14:47:46Z</time>
      </trkpt>
      <trkpt lat="47.21119" lon="5.5443">
        <ele>291</ele>
        <time>2012-03-01T14:48:03Z</time>
      </trkpt>
      <trkpt lat="47.21128" lon="5.54386">
        <ele>289</ele>
        <time>2012-03-01T14:48:26Z</time>
      </trkpt>
      <trkpt lat="47.21129" lon="5.54352">
        <ele>288</ele>
        <time>2012-03-01T14:48:46Z</time>
      </trkpt>
      <trkpt lat="47.21122" lon="5.54317">
        <ele>286</ele>
        <time>2012-03-01T14:49:06Z</time>
      </trkpt>
      <trkpt lat="47.21108" lon="5.54285">
        <ele>285</ele>
        <time>2012-03-01T14:49:27Z</time>
      </trkpt>
      <trkpt lat="47.21093" lon="5.54249">
        <ele>283</ele>
        <time>2012-03-01T14:49:51Z</time>
      </trkpt>
      <trkpt lat="47.21095" lon="5.54213">
        <ele>280</ele>
        <time>2012-03-01T14:50:11Z</time>
      </trkpt>
      <trkpt lat="47.21111" lon="5.54181">
        <ele>277</ele>
        <time>2012-03-01T14:50:33Z</time>
      </trkpt>
      <trkpt lat="47.21136" lon="5.54149">
        <ele>275</ele>
        <time>2012-03-01T14:51:00Z</time>
      </trkpt>
      <trkpt lat="47.21164" lon="5.54149">
        <ele>272</ele>
        <time>2012-03-01T14:51:22Z</time>
      </trkpt>
      <trkpt lat="47.21185" lon="5.5416">
        <ele>269</ele>
        <time>2012-03-01T14:51:41Z</time>
      </trkpt>
      <trkpt lat="47.21208" lon="5.5418">
        <ele>267</ele>
        <time>2012-03-01T14:52:02Z</time>
      </trkpt>
      <trkpt lat="47.21228" lon="5.54199">
        <ele>265</ele>
        <time>2012-03-01T14:52:23Z</time>
      </trkpt>
      <trkpt lat="47.21242" lon="5.542">
        <ele>264</ele>
        <time>2012-03-01T14:52:42Z</time>
      </trkpt>
      <trkpt lat="47.21265" lon="5.54173">
        <ele>261</ele>
        <time>2012-03-01T14:53:04Z</time>
      </trkpt>
      <trkpt lat="47.21289" lon="5.54144">
        <ele>259</ele>
        <time>2012-03-01T14:53:28Z</time>
      </trkpt>
      <trkpt lat="47.21315" lon="5.5411">
        <ele>257</ele>
        <time>2012-03-01T14:53:55Z</time>
      </trkpt>
      <trkpt lat="47.21335" lon="5.54086">
        <ele>257</ele>
        <time>2012-03-01T14:54:16Z</time>
      </trkpt>
      <trkpt lat="47.21338" lon="5.54079">
        <ele>257</ele>
        <time>2012-03-01T14:54:29Z</time>
      </trkpt>
      <trkpt lat="47.21355" lon="5.54061">
        <ele>256</ele>
        <time>2012-03-01T14:54:45Z</time>
      </trkpt>
      <trkpt lat="47.21371" lon="5.5403">
        <ele>253</ele>
        <time>2012-03-01T14:55:04Z</time>
      </trkpt>
      <trkpt lat="47.21388" lon="5.54001">
        <ele>252</ele>
        <time>2012-03-01T14:55:24Z</time>
      </trkpt>
      <trkpt lat="47.21407" lon="5.53969">
        <ele>250</ele>
        <time>2012-03-01T14:55:46Z</time>
      </trkpt>
      <trkpt lat="47.21424" lon="5.53934">
        <ele>248</ele>
        <time>2012-03-01T14:56:07Z</time>
      </trkpt>
      <trkpt lat="47.21442" lon="5.53898">
        <ele>247</ele>
        <time>2012-03-01T14:56:30Z</time>
      </trkpt>
      <trkpt lat="47.21457" lon="5.5387">
        <ele>245</ele>
        <time>2012-03-01T14:56:48Z</time>
      </trkpt>
      <trkpt lat="47.21474" lon="5.53835">
        <ele>244</ele>
        <time>2012-03-01T14:57:11Z</time>
      </trkpt>
      <trkpt lat="47.21492" lon="5.538">
        <ele>242</ele>
        <time>2012-03-01T14:57:34Z</time>
      </trkpt>
      <trkpt lat="47.21507" lon="5.53767">
        <ele>241</ele>
        <time>2012-03-01T14:57:55Z</time>
      </trkpt>
      <trkpt lat="47.2152" lon="5.53743">
        <ele>240</ele>
        <time>2012-03-01T14:58:11Z</time>
      </trkpt>
      <trkpt lat="47.21536" lon="5.53706">
        <ele>239</ele>
        <time>2012-03-01T14:58:33Z</time>
      </trkpt>
      <trkpt lat="47.21553" lon="5.53673">
        <ele>238</ele>
        <time>2012-03-01T14:58:54Z</time>
      </trkpt>
      <trkpt lat="47.21559" lon="5.53664">
        <ele>237</ele>
        <time>2012-03-01T14:59:00Z</time>
      </trkpt>
      <trkpt lat="47.21561" lon="5.53658">
        <ele>237</ele>
        <time>2012-03-01T14:59:04Z</time>
      </trkpt>
      <trkpt lat="47.21567" lon="5.53649">
        <ele>237</ele>
        <time>2012-03-01T14:59:11Z</time>
      </trkpt>
      <trkpt lat="47.21567" lon="5.53646">
        <ele>236</ele>
        <time>2012-03-01T14:59:13Z</time>
      </trkpt>
      <trkpt lat="47.21592" lon="5.53619">
        <ele>235</ele>
        <time>2012-03-01T14:59:37Z</time>
      </trkpt>
      <trkpt lat="47.21614" lon="5.53586">
        <ele>234</ele>
        <time>2012-03-01T15:00:00Z</time>
      </trkpt>
      <trkpt lat="47.21634" lon="5.53565">
        <ele>233</ele>
        <time>2012-03-01T15:00:20Z</time>
      </trkpt>
      <trkpt lat="47.21662" lon="5.53528">
        <ele>232</ele>
        <time>2012-03-01T15:00:47Z</time>
      </trkpt>
      <trkpt lat="47.21686" lon="5.53504">
        <ele>231</ele>
        <time>2012-03-01T15:01:10Z</time>
      </trkpt>
      <trkpt lat="47.21715" lon="5.53474">
        <ele>231</ele>
        <time>2012-03-01T15:01:36Z</time>
      </trkpt>
      <trkpt lat="47.21746" lon="5.53462">
        <ele>231</ele>
        <time>2012-03-01T15:01:59Z</time>
      </trkpt>
      <trkpt lat="47.21773" lon="5.53456">
        <ele>231</ele>
        <time>2012-03-01T15:02:19Z</time>
      </trkpt>
      <trkpt lat="47.21808" lon="5.53457">
        <ele>230</ele>
        <time>2012-03-01T15:02:46Z</time>
      </trkpt>
      <trkpt lat="47.21856" lon="5.5346">
        <ele>229</ele>
        <time>2012-03-01T15:03:22Z</time>
      </trkpt>
      <trkpt lat="47.21895" lon="5.53462">
        <ele>229</ele>
        <time>2012-03-01T15:03:52Z</time>
      </trkpt>
      <trkpt lat="47.21928" lon="5.5345">
        <ele>228</ele>
        <time>2012-03-01T15:04:19Z</time>
      </trkpt>
      <trkpt lat="47.21949" lon="5.53428">
        <ele>228</ele>
        <time>2012-03-01T15:04:39Z</time>
      </trkpt>
      <trkpt lat="47.21968" lon="5.53387">
        <ele>228</ele>
        <time>2012-03-01T15:05:06Z</time>
      </trkpt>
      <trkpt lat="47.21977" lon="5.53345">
        <ele>228</ele>
        <time>2012-03-01T15:05:28Z</time>
      </trkpt>
      <trkpt lat="47.21974" lon="5.53306">
        <ele>228</ele>
        <time>2012-03-01T15:05:48Z</time>
      </trkpt>
      <trkpt lat="47.21965" lon="5.53286">
        <ele>229</ele>
        <time>2012-03-01T15:06:02Z</time>
      </trkpt>
      <trkpt lat="47.2195" lon="5.5325">
        <ele>229</ele>
        <time>2012-03-01T15:06:24Z</time>
      </trkpt>
      <trkpt lat="47.21941" lon="5.53208">
        <ele>230</ele>
        <time>2012-03-01T15:06:47Z</time>
      </trkpt>
      <trkpt lat="47.21937" lon="5.53179">
        <ele>231</ele>
        <time>2012-03-01T15:07:02Z</time>
      </trkpt>
      <trkpt lat="47.21926" lon="5.53151">
        <ele>233</ele>
        <time>2012-03-01T15:07:20Z</time>
      </trkpt>
      <trkpt lat="47.21914" lon="5.53134">
        <ele>234</ele>
        <time>2012-03-01T15:07:33Z</time>
      </trkpt>
      <trkpt lat="47.21902" lon="5.53124">
        <ele>235</ele>
        <time>2012-03-01T15:07:44Z</time>
      </trkpt>
      <trkpt lat="47.21883" lon="5.53106">
        <ele>236</ele>
        <time>2012-03-01T15:08:01Z</time>
      </trkpt>
      <trkpt lat="47.21877" lon="5.53098">
        <ele>237</ele>
        <time>2012-03-01T15:08:07Z</time>
      </trkpt>
      <trkpt lat="47.21872" lon="5.53091">
        <ele>237</ele>
        <time>2012-03-01T15:08:13Z</time>
      </trkpt>
      <trkpt lat="47.21871" lon="5.53042">
        <ele>238</ele>
        <time>2012-03-01T15:08:36Z</time>
      </trkpt>
      <trkpt lat="47.21882" lon="5.53013">
        <ele>238</ele>
        <time>2012-03-01T15:08:52Z</time>
      </trkpt>
      <trkpt lat="47.21902" lon="5.52996">
        <ele>238</ele>
        <time>2012-03-01T15:09:10Z</time>
      </trkpt>
      <trkpt lat="47.21913" lon="5.5299">
        <ele>237</ele>
        <time>2012-03-01T15:09:29Z</time>
      </trkpt>
      <trkpt lat="47.21917" lon="5.52985">
        <ele>237</ele>
        <time>2012-03-01T15:09:43Z</time>
      </trkpt>
      <trkpt lat="47.21917" lon="5.52986">
        <ele>238</ele>
        <time>2012-03-01T15:10:38Z</time>
      </trkpt>
      <trkpt lat="47.21916" lon="5.52993">
        <ele>238</ele>
        <time>2012-03-01T15:11:18Z</time>
      </trkpt>
      <trkpt lat="47.21915" lon="5.52995">
        <ele>238</ele>
        <time>2012-03-01T15:11:48Z</time>
      </trkpt>
      <trkpt lat="47.21914" lon="5.52983">
        <ele>238</ele>
        <time>2012-03-01T15:12:21Z</time>
      </trkpt>
      <trkpt lat="47.21914" lon="5.52987">
        <ele>238</ele>
        <time>2012-03-01T15:14:01Z</time>
      </trkpt>
      <trkpt lat="47.21933" lon="5.52996">
        <ele>239</ele>
        <time>2012-03-01T15:14:17Z</time>
      </trkpt>
      <trkpt lat="47.21943" lon="5.53002">
        <ele>240</ele>
        <time>2012-03-01T15:14:28Z</time>
      </trkpt>
      <trkpt lat="47.21967" lon="5.53031">
        <ele>240</ele>
        <time>2012-03-01T15:14:55Z</time>
      </trkpt>
      <trkpt lat="47.21973" lon="5.53038">
        <ele>241</ele>
        <time>2012-03-01T15:15:03Z</time>
      </trkpt>
      <trkpt lat="47.21988" lon="5.53053">
        <ele>242</ele>
        <time>2012-03-01T15:15:19Z</time>
      </trkpt>
      <trkpt lat="47.22014" lon="5.5308">
        <ele>244</ele>
        <time>2012-03-01T15:15:44Z</time>
      </trkpt>
      <trkpt lat="47.22031" lon="5.53096">
        <ele>245</ele>
        <time>2012-03-01T15:16:00Z</time>
      </trkpt>
      <trkpt lat="47.22033" lon="5.53098">
        <ele>245</ele>
        <time>2012-03-01T15:16:02Z</time>
      </trkpt>
      <trkpt lat="47.22052" lon="5.53111">
        <ele>245</ele>
        <time>2012-03-01T15:16:18Z</time>
      </trkpt>
      <trkpt lat="47.22079" lon="5.5313">
        <ele>246</ele>
        <time>2012-03-01T15:16:42Z</time>
      </trkpt>
      <trkpt lat="47.221" lon="5.53145">
        <ele>246</ele>
        <time>2012-03-01T15:17:00Z</time>
      </trkpt>
      <trkpt lat="47.22102" lon="5.53148">
        <ele>247</ele>
        <time>2012-03-01T15:17:03Z</time>
      </trkpt>
      <trkpt lat="47.22122" lon="5.53159">
        <ele>247</ele>
        <time>2012-03-01T15:17:21Z</time>
      </trkpt>
      <trkpt lat="47.22133" lon="5.5317">
        <ele>248</ele>
        <time>2012-03-01T15:17:33Z</time>
      </trkpt>
      <trkpt lat="47.22138" lon="5.53173">
        <ele>247</ele>
        <time>2012-03-01T15:17:38Z</time>
      </trkpt>
      <trkpt lat="47.22144" lon="5.53179">
        <ele>248</ele>
        <time>2012-03-01T15:17:43Z</time>
      </trkpt>
      <trkpt lat="47.22149" lon="5.5319">
        <ele>248</ele>
        <time>2012-03-01T15:17:51Z</time>
      </trkpt>
      <trkpt lat="47.2216" lon="5.53215">
        <ele>249</ele>
        <time>2012-03-01T15:18:07Z</time>
      </trkpt>
      <trkpt lat="47.22168" lon="5.5323">
        <ele>249</ele>
        <time>2012-03-01T15:18:17Z</time>
      </trkpt>
      <trkpt lat="47.2217" lon="5.53236">
        <ele>250</ele>
        <time>2012-03-01T15:18:21Z</time>
      </trkpt>
      <trkpt lat="47.22176" lon="5.53249">
        <ele>250</ele>
        <time>2012-03-01T15:18:30Z</time>
      </trkpt>
      <trkpt lat="47.22186" lon="5.53273">
        <ele>250</ele>
        <time>2012-03-01T15:18:45Z</time>
      </trkpt>
      <trkpt lat="47.22187" lon="5.53284">
        <ele>251</ele>
        <time>2012-03-01T15:18:52Z</time>
      </trkpt>
      <trkpt lat="47.22195" lon="5.533">
        <ele>251</ele>
        <time>2012-03-01T15:19:01Z</time>
      </trkpt>
      <trkpt lat="47.22198" lon="5.5331">
        <ele>251</ele>
        <time>2012-03-01T15:19:06Z</time>
      </trkpt>
      <trkpt lat="47.222" lon="5.53315">
        <ele>251</ele>
        <time>2012-03-01T15:19:09Z</time>
      </trkpt>
      <trkpt lat="47.22211" lon="5.53336">
        <ele>251</ele>
        <time>2012-03-01T15:19:24Z</time>
      </trkpt>
      <trkpt lat="47.22228" lon="5.53363">
        <ele>252</ele>
        <time>2012-03-01T15:19:43Z</time>
      </trkpt>
      <trkpt lat="47.2223" lon="5.53366">
        <ele>252</ele>
        <time>2012-03-01T15:19:45Z</time>
      </trkpt>
      <trkpt lat="47.22239" lon="5.53389">
        <ele>252</ele>
        <time>2012-03-01T15:20:00Z</time>
      </trkpt>
      <trkpt lat="47.22253" lon="5.53416">
        <ele>252</ele>
        <time>2012-03-01T15:20:20Z</time>
      </trkpt>
      <trkpt lat="47.22262" lon="5.53438">
        <ele>253</ele>
        <time>2012-03-01T15:20:34Z</time>
      </trkpt>
      <trkpt lat="47.22269" lon="5.53452">
        <ele>253</ele>
        <time>2012-03-01T15:20:44Z</time>
      </trkpt>
      <trkpt lat="47.22281" lon="5.53475">
        <ele>254</ele>
        <time>2012-03-01T15:20:57Z</time>
      </trkpt>
      <trkpt lat="47.22283" lon="5.53482">
        <ele>254</ele>
        <time>2012-03-01T15:21:01Z</time>
      </trkpt>
      <trkpt lat="47.22278" lon="5.53495">
        <ele>254</ele>
        <time>2012-03-01T15:21:13Z</time>
      </trkpt>
      <trkpt lat="47.22277" lon="5.53496">
        <ele>254</ele>
        <time>2012-03-01T15:21:14Z</time>
      </trkpt>
      <trkpt lat="47.2226" lon="5.53519">
        <ele>256</ele>
        <time>2012-03-01T15:21:33Z</time>
      </trkpt>
      <trkpt lat="47.22254" lon="5.53554">
        <ele>257</ele>
        <time>2012-03-01T15:21:52Z</time>
      </trkpt>
      <trkpt lat="47.22254" lon="5.53583">
        <ele>259</ele>
        <time>2012-03-01T15:22:11Z</time>
      </trkpt>
      <trkpt lat="47.22258" lon="5.53609">
        <ele>261</ele>
        <time>2012-03-01T15:22:30Z</time>
      </trkpt>
      <trkpt lat="47.22262" lon="5.53629">
        <ele>264</ele>
        <time>2012-03-01T15:22:46Z</time>
      </trkpt>
      <trkpt lat="47.22265" lon="5.53647">
        <ele>265</ele>
        <time>2012-03-01T15:22:58Z</time>
      </trkpt>
      <trkpt lat="47.22268" lon="5.53656">
        <ele>267</ele>
        <time>2012-03-01T15:23:08Z</time>
      </trkpt>
      <trkpt lat="47.22265" lon="5.53667">
        <ele>269</ele>
        <time>2012-03-01T15:23:15Z</time>
      </trkpt>
      <trkpt lat="47.22271" lon="5.53675">
        <ele>270</ele>
        <time>2012-03-01T15:23:23Z</time>
      </trkpt>
      <trkpt lat="47.22279" lon="5.5369">
        <ele>272</ele>
        <time>2012-03-01T15:23:39Z</time>
      </trkpt>
      <trkpt lat="47.22283" lon="5.53702">
        <ele>272</ele>
        <time>2012-03-01T15:23:49Z</time>
      </trkpt>
      <trkpt lat="47.2229" lon="5.53721">
        <ele>274</ele>
        <time>2012-03-01T15:24:02Z</time>
      </trkpt>
      <trkpt lat="47.22295" lon="5.53743">
        <ele>274</ele>
        <time>2012-03-01T15:24:16Z</time>
      </trkpt>
      <trkpt lat="47.22295" lon="5.53746">
        <ele>275</ele>
        <time>2012-03-01T15:24:18Z</time>
      </trkpt>
      <trkpt lat="47.22301" lon="5.53767">
        <ele>275</ele>
        <time>2012-03-01T15:24:33Z</time>
      </trkpt>
      <trkpt lat="47.22303" lon="5.53774">
        <ele>276</ele>
        <time>2012-03-01T15:24:36Z</time>
      </trkpt>
      <trkpt lat="47.22305" lon="5.53785">
        <ele>277</ele>
        <time>2012-03-01T15:24:49Z</time>
      </trkpt>
      <trkpt lat="47.22303" lon="5.5378">
        <ele>277</ele>
        <time>2012-03-01T15:24:54Z</time>
      </trkpt>
      <trkpt lat="47.22295" lon="5.53755">
        <ele>277</ele>
        <time>2012-03-01T15:25:09Z</time>
      </trkpt>
      <trkpt lat="47.22286" lon="5.53737">
        <ele>277</ele>
        <time>2012-03-01T15:25:22Z</time>
      </trkpt>
      <trkpt lat="47.22275" lon="5.53723">
        <ele>277</ele>
        <time>2012-03-01T15:25:35Z</time>
      </trkpt>
      <trkpt lat="47.22259" lon="5.53718">
        <ele>278</ele>
        <time>2012-03-01T15:25:51Z</time>
      </trkpt>
      <trkpt lat="47.22256" lon="5.53721">
        <ele>278</ele>
        <time>2012-03-01T15:25:54Z</time>
      </trkpt>
      <trkpt lat="47.22244" lon="5.53729">
        <ele>279</ele>
        <time>2012-03-01T15:26:07Z</time>
      </trkpt>
      <trkpt lat="47.22242" lon="5.53732">
        <ele>279</ele>
        <time>2012-03-01T15:26:09Z</time>
      </trkpt>
      <trkpt lat="47.22241" lon="5.53746">
        <ele>279</ele>
        <time>2012-03-01T15:26:17Z</time>
      </trkpt>
      <trkpt lat="47.22241" lon="5.53749">
        <ele>279</ele>
        <time>2012-03-01T15:26:19Z</time>
      </trkpt>
      <trkpt lat="47.22245" lon="5.53767">
        <ele>280</ele>
        <time>2012-03-01T15:26:33Z</time>
      </trkpt>
      <trkpt lat="47.22253" lon="5.53786">
        <ele>283</ele>
        <time>2012-03-01T15:26:50Z</time>
      </trkpt>
      <trkpt lat="47.22264" lon="5.53797">
        <ele>284</ele>
        <time>2012-03-01T15:27:07Z</time>
      </trkpt>
      <trkpt lat="47.22266" lon="5.53809">
        <ele>285</ele>
        <time>2012-03-01T15:27:24Z</time>
      </trkpt>
      <trkpt lat="47.22266" lon="5.53817">
        <ele>285</ele>
        <time>2012-03-01T15:28:08Z</time>
      </trkpt>
      <trkpt lat="47.22265" lon="5.53818">
        <ele>285</ele>
        <time>2012-03-01T15:32:28Z</time>
      </trkpt>
      <trkpt lat="47.2226" lon="5.53807">
        <ele>286</ele>
        <time>2012-03-01T15:39:33Z</time>
      </trkpt>
      <trkpt lat="47.22252" lon="5.53802">
        <ele>285</ele>
        <time>2012-03-01T15:39:55Z</time>
      </trkpt>
      <trkpt lat="47.2224" lon="5.53784">
        <ele>283</ele>
        <time>2012-03-01T15:40:12Z</time>
      </trkpt>
      <trkpt lat="47.22235" lon="5.53779">
        <ele>282</ele>
        <time>2012-03-01T15:40:18Z</time>
      </trkpt>
      <trkpt lat="47.22231" lon="5.53759">
        <ele>281</ele>
        <time>2012-03-01T15:40:32Z</time>
      </trkpt>
      <trkpt lat="47.22232" lon="5.53744">
        <ele>281</ele>
        <time>2012-03-01T15:40:41Z</time>
      </trkpt>
      <trkpt lat="47.22233" lon="5.53739">
        <ele>280</ele>
        <time>2012-03-01T15:40:44Z</time>
      </trkpt>
      <trkpt lat="47.22242" lon="5.53727">
        <ele>280</ele>
        <time>2012-03-01T15:40:55Z</time>
      </trkpt>
      <trkpt lat="47.22257" lon="5.5372">
        <ele>280</ele>
        <time>2012-03-01T15:41:08Z</time>
      </trkpt>
      <trkpt lat="47.22265" lon="5.53719">
        <ele>280</ele>
        <time>2012-03-01T15:41:14Z</time>
      </trkpt>
      <trkpt lat="47.22275" lon="5.53729">
        <ele>279</ele>
        <time>2012-03-01T15:41:27Z</time>
      </trkpt>
      <trkpt lat="47.22281" lon="5.53749">
        <ele>279</ele>
        <time>2012-03-01T15:41:43Z</time>
      </trkpt>
      <trkpt lat="47.22285" lon="5.53766">
        <ele>279</ele>
        <time>2012-03-01T15:41:49Z</time>
      </trkpt>
      <trkpt lat="47.22287" lon="5.53788">
        <ele>278</ele>
        <time>2012-03-01T15:42:02Z</time>
      </trkpt>
      <trkpt lat="47.2229" lon="5.53799">
        <ele>277</ele>
        <time>2012-03-01T15:42:13Z</time>
      </trkpt>
      <trkpt lat="47.22312" lon="5.53827">
        <ele>277</ele>
        <time>2012-03-01T15:42:30Z</time>
      </trkpt>
      <trkpt lat="47.22313" lon="5.53836">
        <ele>276</ele>
        <time>2012-03-01T15:42:35Z</time>
      </trkpt>
      <trkpt lat="47.22321" lon="5.53857">
        <ele>275</ele>
        <time>2012-03-01T15:42:45Z</time>
      </trkpt>
      <trkpt lat="47.22331" lon="5.53882">
        <ele>273</ele>
        <time>2012-03-01T15:43:02Z</time>
      </trkpt>
      <trkpt lat="47.22338" lon="5.53901">
        <ele>272</ele>
        <time>2012-03-01T15:43:14Z</time>
      </trkpt>
      <trkpt lat="47.22343" lon="5.53923">
        <ele>270</ele>
        <time>2012-03-01T15:43:25Z</time>
      </trkpt>
      <trkpt lat="47.22345" lon="5.53926">
        <ele>270</ele>
        <time>2012-03-01T15:43:27Z</time>
      </trkpt>
      <trkpt lat="47.22347" lon="5.53937">
        <ele>270</ele>
        <time>2012-03-01T15:43:31Z</time>
      </trkpt>
      <trkpt lat="47.22348" lon="5.53943">
        <ele>269</ele>
        <time>2012-03-01T15:43:35Z</time>
      </trkpt>
      <trkpt lat="47.22357" lon="5.5396">
        <ele>267</ele>
        <time>2012-03-01T15:43:46Z</time>
      </trkpt>
      <trkpt lat="47.22361" lon="5.53963">
        <ele>267</ele>
        <time>2012-03-01T15:43:51Z</time>
      </trkpt>
      <trkpt lat="47.22375" lon="5.53962">
        <ele>263</ele>
        <time>2012-03-01T15:44:03Z</time>
      </trkpt>
      <trkpt lat="47.22384" lon="5.53963">
        <ele>262</ele>
        <time>2012-03-01T15:44:09Z</time>
      </trkpt>
      <trkpt lat="47.22395" lon="5.53963">
        <ele>259</ele>
        <time>2012-03-01T15:44:19Z</time>
      </trkpt>
      <trkpt lat="47.22403" lon="5.53935">
        <ele>259</ele>
        <time>2012-03-01T15:44:35Z</time>
      </trkpt>
      <trkpt lat="47.22411" lon="5.53906">
        <ele>258</ele>
        <time>2012-03-01T15:44:50Z</time>
      </trkpt>
      <trkpt lat="47.22413" lon="5.53897">
        <ele>259</ele>
        <time>2012-03-01T15:44:55Z</time>
      </trkpt>
      <trkpt lat="47.22415" lon="5.53895">
        <ele>258</ele>
        <time>2012-03-01T15:44:57Z</time>
      </trkpt>
      <trkpt lat="47.22418" lon="5.53886">
        <ele>258</ele>
        <time>2012-03-01T15:45:02Z</time>
      </trkpt>
      <trkpt lat="47.22416" lon="5.53877">
        <ele>258</ele>
        <time>2012-03-01T15:45:07Z</time>
      </trkpt>
      <trkpt lat="47.22416" lon="5.53873">
        <ele>259</ele>
        <time>2012-03-01T15:45:09Z</time>
      </trkpt>
      <trkpt lat="47.22424" lon="5.53838">
        <ele>258</ele>
        <time>2012-03-01T15:45:28Z</time>
      </trkpt>
      <trkpt lat="47.22425" lon="5.53835">
        <ele>258</ele>
        <time>2012-03-01T15:45:30Z</time>
      </trkpt>
      <trkpt lat="47.22429" lon="5.53823">
        <ele>258</ele>
        <time>2012-03-01T15:45:37Z</time>
      </trkpt>
      <trkpt lat="47.22437" lon="5.53791">
        <ele>256</ele>
        <time>2012-03-01T15:45:53Z</time>
      </trkpt>
      <trkpt lat="47.2244" lon="5.53766">
        <ele>254</ele>
        <time>2012-03-01T15:46:05Z</time>
      </trkpt>
      <trkpt lat="47.22443" lon="5.53737">
        <ele>253</ele>
        <time>2012-03-01T15:46:20Z</time>
      </trkpt>
      <trkpt lat="47.22442" lon="5.53726">
        <ele>253</ele>
        <time>2012-03-01T15:46:25Z</time>
      </trkpt>
      <trkpt lat="47.2244" lon="5.53719">
        <ele>253</ele>
        <time>2012-03-01T15:46:29Z</time>
      </trkpt>
      <trkpt lat="47.2243" lon="5.53689">
        <ele>252</ele>
        <time>2012-03-01T15:46:44Z</time>
      </trkpt>
      <trkpt lat="47.22428" lon="5.5368">
        <ele>252</ele>
        <time>2012-03-01T15:46:49Z</time>
      </trkpt>
      <trkpt lat="47.22426" lon="5.53677">
        <ele>252</ele>
        <time>2012-03-01T15:46:51Z</time>
      </trkpt>
      <trkpt lat="47.22424" lon="5.53667">
        <ele>252</ele>
        <time>2012-03-01T15:46:56Z</time>
      </trkpt>
      <trkpt lat="47.22416" lon="5.53643">
        <ele>251</ele>
        <time>2012-03-01T15:47:10Z</time>
      </trkpt>
      <trkpt lat="47.22406" lon="5.53611">
        <ele>251</ele>
        <time>2012-03-01T15:47:29Z</time>
      </trkpt>
      <trkpt lat="47.22396" lon="5.53585">
        <ele>251</ele>
        <time>2012-03-01T15:47:43Z</time>
      </trkpt>
      <trkpt lat="47.2239" lon="5.53573">
        <ele>251</ele>
        <time>2012-03-01T15:47:50Z</time>
      </trkpt>
      <trkpt lat="47.22385" lon="5.5356">
        <ele>250</ele>
        <time>2012-03-01T15:47:58Z</time>
      </trkpt>
      <trkpt lat="47.22374" lon="5.53536">
        <ele>250</ele>
        <time>2012-03-01T15:48:12Z</time>
      </trkpt>
      <trkpt lat="47.22372" lon="5.53533">
        <ele>250</ele>
        <time>2012-03-01T15:48:14Z</time>
      </trkpt>
      <trkpt lat="47.22365" lon="5.53507">
        <ele>250</ele>
        <time>2012-03-01T15:48:29Z</time>
      </trkpt>
      <trkpt lat="47.22356" lon="5.53499">
        <ele>250</ele>
        <time>2012-03-01T15:48:39Z</time>
      </trkpt>
      <trkpt lat="47.22361" lon="5.53484">
        <ele>249</ele>
        <time>2012-03-01T15:48:53Z</time>
      </trkpt>
      <trkpt lat="47.22368" lon="5.5348">
        <ele>247</ele>
        <time>2012-03-01T15:49:02Z</time>
      </trkpt>
      <trkpt lat="47.22392" lon="5.53466">
        <ele>245</ele>
        <time>2012-03-01T15:49:21Z</time>
      </trkpt>
      <trkpt lat="47.22416" lon="5.5345">
        <ele>243</ele>
        <time>2012-03-01T15:49:37Z</time>
      </trkpt>
      <trkpt lat="47.22432" lon="5.53437">
        <ele>242</ele>
        <time>2012-03-01T15:49:50Z</time>
      </trkpt>
      <trkpt lat="47.22447" lon="5.53425">
        <ele>240</ele>
        <time>2012-03-01T15:50:02Z</time>
      </trkpt>
      <trkpt lat="47.22463" lon="5.53412">
        <ele>239</ele>
        <time>2012-03-01T15:50:16Z</time>
      </trkpt>
      <trkpt lat="47.22465" lon="5.53409">
        <ele>239</ele>
        <time>2012-03-01T15:50:19Z</time>
      </trkpt>
      <trkpt lat="47.22477" lon="5.53403">
        <ele>238</ele>
        <time>2012-03-01T15:50:29Z</time>
      </trkpt>
      <trkpt lat="47.22482" lon="5.53399">
        <ele>238</ele>
        <time>2012-03-01T15:50:33Z</time>
      </trkpt>
      <trkpt lat="47.22481" lon="5.53374">
        <ele>237</ele>
        <time>2012-03-01T15:50:42Z</time>
      </trkpt>
      <trkpt lat="47.22479" lon="5.53365">
        <ele>238</ele>
        <time>2012-03-01T15:50:47Z</time>
      </trkpt>
      <trkpt lat="47.22477" lon="5.53353">
        <ele>238</ele>
        <time>2012-03-01T15:50:54Z</time>
      </trkpt>
      <trkpt lat="47.22473" lon="5.53344">
        <ele>239</ele>
        <time>2012-03-01T15:51:01Z</time>
      </trkpt>
      <trkpt lat="47.22466" lon="5.53349">
        <ele>239</ele>
        <time>2012-03-01T15:51:11Z</time>
      </trkpt>
      <trkpt lat="47.22463" lon="5.53349">
        <ele>239</ele>
        <time>2012-03-01T15:51:13Z</time>
      </trkpt>
      <trkpt lat="47.22443" lon="5.53352">
        <ele>240</ele>
        <time>2012-03-01T15:51:26Z</time>
      </trkpt>
      <trkpt lat="47.2244" lon="5.53325">
        <ele>238</ele>
        <time>2012-03-01T15:51:41Z</time>
      </trkpt>
      <trkpt lat="47.22442" lon="5.53316">
        <ele>237</ele>
        <time>2012-03-01T15:51:47Z</time>
      </trkpt>
      <trkpt lat="47.22442" lon="5.53278">
        <ele>235</ele>
        <time>2012-03-01T15:52:06Z</time>
      </trkpt>
      <trkpt lat="47.22433" lon="5.53232">
        <ele>233</ele>
        <time>2012-03-01T15:52:32Z</time>
      </trkpt>
      <trkpt lat="47.22414" lon="5.53189">
        <ele>232</ele>
        <time>2012-03-01T15:53:00Z</time>
      </trkpt>
      <trkpt lat="47.22402" lon="5.53153">
        <ele>231</ele>
        <time>2012-03-01T15:53:21Z</time>
      </trkpt>
      <trkpt lat="47.22401" lon="5.5315">
        <ele>231</ele>
        <time>2012-03-01T15:53:23Z</time>
      </trkpt>
      <trkpt lat="47.22394" lon="5.53126">
        <ele>230</ele>
        <time>2012-03-01T15:53:38Z</time>
      </trkpt>
      <trkpt lat="47.22385" lon="5.531">
        <ele>230</ele>
        <time>2012-03-01T15:53:54Z</time>
      </trkpt>
      <trkpt lat="47.22366" lon="5.53059">
        <ele>229</ele>
        <time>2012-03-01T15:54:20Z</time>
      </trkpt>
      <trkpt lat="47.22347" lon="5.53031">
        <ele>229</ele>
        <time>2012-03-01T15:54:40Z</time>
      </trkpt>
      <trkpt lat="47.22325" lon="5.53008">
        <ele>228</ele>
        <time>2012-03-01T15:54:59Z</time>
      </trkpt>
      <trkpt lat="47.22305" lon="5.52994">
        <ele>227</ele>
        <time>2012-03-01T15:55:14Z</time>
      </trkpt>
      <trkpt lat="47.22302" lon="5.5299">
        <ele>227</ele>
        <time>2012-03-01T15:55:18Z</time>
      </trkpt>
      <trkpt lat="47.22284" lon="5.52975">
        <ele>227</ele>
        <time>2012-03-01T15:55:32Z</time>
      </trkpt>
      <trkpt lat="47.22263" lon="5.52958">
        <ele>227</ele>
        <time>2012-03-01T15:55:50Z</time>
      </trkpt>
      <trkpt lat="47.22244" lon="5.5294">
        <ele>227</ele>
        <time>2012-03-01T15:56:08Z</time>
      </trkpt>
      <trkpt lat="47.22233" lon="5.52934">
        <ele>227</ele>
        <time>2012-03-01T15:56:19Z</time>
      </trkpt>
      <trkpt lat="47.22227" lon="5.52929">
        <ele>226</ele>
        <time>2012-03-01T15:56:25Z</time>
      </trkpt>
      <trkpt lat="47.22221" lon="5.52925">
        <ele>227</ele>
        <time>2012-03-01T15:56:30Z</time>
      </trkpt>
      <trkpt lat="47.22206" lon="5.52909">
        <ele>226</ele>
        <time>2012-03-01T15:56:46Z</time>
      </trkpt>
      <trkpt lat="47.2219" lon="5.52892">
        <ele>226</ele>
        <time>2012-03-01T15:57:04Z</time>
      </trkpt>
      <trkpt lat="47.2218" lon="5.52885">
        <ele>225</ele>
        <time>2012-03-01T15:57:17Z</time>
      </trkpt>
      <trkpt lat="47.2217" lon="5.52882">
        <ele>226</ele>
        <time>2012-03-01T15:57:26Z</time>
      </trkpt>
      <trkpt lat="47.22166" lon="5.52881">
        <ele>226</ele>
        <time>2012-03-01T15:57:29Z</time>
      </trkpt>
      <trkpt lat="47.22157" lon="5.52875">
        <ele>226</ele>
        <time>2012-03-01T15:57:37Z</time>
      </trkpt>
      <trkpt lat="47.22145" lon="5.52868">
        <ele>226</ele>
        <time>2012-03-01T15:57:47Z</time>
      </trkpt>
      <trkpt lat="47.22134" lon="5.52861">
        <ele>226</ele>
        <time>2012-03-01T15:57:56Z</time>
      </trkpt>
      <trkpt lat="47.22128" lon="5.52857">
        <ele>226</ele>
        <time>2012-03-01T15:58:01Z</time>
      </trkpt>
      <trkpt lat="47.22115" lon="5.5284">
        <ele>225</ele>
        <time>2012-03-01T15:58:15Z</time>
      </trkpt>
      <trkpt lat="47.22104" lon="5.52828">
        <ele>225</ele>
        <time>2012-03-01T15:58:27Z</time>
      </trkpt>
      <trkpt lat="47.22103" lon="5.52825">
        <ele>224</ele>
        <time>2012-03-01T15:58:29Z</time>
      </trkpt>
      <trkpt lat="47.22089" lon="5.52812">
        <ele>224</ele>
        <time>2012-03-01T15:58:41Z</time>
      </trkpt>
      <trkpt lat="47.22082" lon="5.52806">
        <ele>224</ele>
        <time>2012-03-01T15:58:48Z</time>
      </trkpt>
      <trkpt lat="47.22079" lon="5.52803">
        <ele>223</ele>
        <time>2012-03-01T15:58:51Z</time>
      </trkpt>
      <trkpt lat="47.22075" lon="5.52799">
        <ele>223</ele>
        <time>2012-03-01T15:58:55Z</time>
      </trkpt>
      <trkpt lat="47.22057" lon="5.52787">
        <ele>223</ele>
        <time>2012-03-01T15:59:11Z</time>
      </trkpt>
      <trkpt lat="47.22047" lon="5.52779">
        <ele>223</ele>
        <time>2012-03-01T15:59:19Z</time>
      </trkpt>
      <trkpt lat="47.22032" lon="5.52757">
        <ele>223</ele>
        <time>2012-03-01T15:59:37Z</time>
      </trkpt>
      <trkpt lat="47.22013" lon="5.52727">
        <ele>222</ele>
        <time>2012-03-01T16:00:00Z</time>
      </trkpt>
      <trkpt lat="47.21992" lon="5.52696">
        <ele>222</ele>
        <time>2012-03-01T16:00:25Z</time>
      </trkpt>
      <trkpt lat="47.2197" lon="5.52669">
        <ele>222</ele>
        <time>2012-03-01T16:00:49Z</time>
      </trkpt>
      <trkpt lat="47.21944" lon="5.52645">
        <ele>222</ele>
        <time>2012-03-01T16:01:14Z</time>
      </trkpt>
      <trkpt lat="47.21918" lon="5.52613">
        <ele>222</ele>
        <time>2012-03-01T16:01:40Z</time>
      </trkpt>
      <trkpt lat="47.21906" lon="5.52602">
        <ele>222</ele>
        <time>2012-03-01T16:01:51Z</time>
      </trkpt>
      <trkpt lat="47.2189" lon="5.5258">
        <ele>222</ele>
        <time>2012-03-01T16:02:07Z</time>
      </trkpt>
      <trkpt lat="47.21883" lon="5.52569">
        <ele>221</ele>
        <time>2012-03-01T16:02:16Z</time>
      </trkpt>
      <trkpt lat="47.2186" lon="5.5254">
        <ele>221</ele>
        <time>2012-03-01T16:02:38Z</time>
      </trkpt>
      <trkpt lat="47.21845" lon="5.5252">
        <ele>221</ele>
        <time>2012-03-01T16:02:55Z</time>
      </trkpt>
      <trkpt lat="47.2183" lon="5.52497">
        <ele>221</ele>
        <time>2012-03-01T16:03:13Z</time>
      </trkpt>
      <trkpt lat="47.21823" lon="5.52488">
        <ele>221</ele>
        <time>2012-03-01T16:03:20Z</time>
      </trkpt>
      <trkpt lat="47.21817" lon="5.5248">
        <ele>221</ele>
        <time>2012-03-01T16:03:26Z</time>
      </trkpt>
      <trkpt lat="47.21801" lon="5.52452">
        <ele>220</ele>
        <time>2012-03-01T16:03:44Z</time>
      </trkpt>
      <trkpt lat="47.21799" lon="5.52447">
        <ele>219</ele>
        <time>2012-03-01T16:03:47Z</time>
      </trkpt>
      <trkpt lat="47.21795" lon="5.52444">
        <ele>220</ele>
        <time>2012-03-01T16:03:50Z</time>
      </trkpt>
      <trkpt lat="47.21781" lon="5.52418">
        <ele>218</ele>
        <time>2012-03-01T16:04:06Z</time>
      </trkpt>
      <trkpt lat="47.21762" lon="5.52378">
        <ele>217</ele>
        <time>2012-03-01T16:04:31Z</time>
      </trkpt>
      <trkpt lat="47.21749" lon="5.52348">
        <ele>215</ele>
        <time>2012-03-01T16:04:50Z</time>
      </trkpt>
      <trkpt lat="47.21748" lon="5.52324">
        <ele>215</ele>
        <time>2012-03-01T16:05:03Z</time>
      </trkpt>
      <trkpt lat="47.21752" lon="5.52308">
        <ele>214</ele>
        <time>2012-03-01T16:05:12Z</time>
      </trkpt>
      <trkpt lat="47.21762" lon="5.52283">
        <ele>213</ele>
        <time>2012-03-01T16:05:29Z</time>
      </trkpt>
      <trkpt lat="47.21763" lon="5.52278">
        <ele>212</ele>
        <time>2012-03-01T16:05:32Z</time>
      </trkpt>
      <trkpt lat="47.21764" lon="5.52272">
        <ele>212</ele>
        <time>2012-03-01T16:05:36Z</time>
      </trkpt>
      <trkpt lat="47.21778" lon="5.52241">
        <ele>211</ele>
        <time>2012-03-01T16:05:54Z</time>
      </trkpt>
      <trkpt lat="47.21783" lon="5.5223">
        <ele>211</ele>
        <time>2012-03-01T16:06:02Z</time>
      </trkpt>
      <trkpt lat="47.21786" lon="5.52228">
        <ele>211</ele>
        <time>2012-03-01T16:06:04Z</time>
      </trkpt>
      <trkpt lat="47.21783" lon="5.52219">
        <ele>210</ele>
        <time>2012-03-01T16:06:10Z</time>
      </trkpt>
      <trkpt lat="47.21766" lon="5.52211">
        <ele>207</ele>
        <time>2012-03-01T16:06:24Z</time>
      </trkpt>
      <trkpt lat="47.21762" lon="5.52209">
        <ele>206</ele>
        <time>2012-03-01T16:06:28Z</time>
      </trkpt>
      <trkpt lat="47.21741" lon="5.52197">
        <ele>206</ele>
        <time>2012-03-01T16:06:44Z</time>
      </trkpt>
      <trkpt lat="47.21739" lon="5.52196">
        <ele>206</ele>
        <time>2012-03-01T16:06:45Z</time>
      </trkpt>
      <trkpt lat="47.21737" lon="5.52197">
        <ele>207</ele>
        <time>2012-03-01T16:06:47Z</time>
      </trkpt>
      <trkpt lat="47.21713" lon="5.52185">
        <ele>208</ele>
        <time>2012-03-01T16:07:06Z</time>
      </trkpt>
      <trkpt lat="47.21707" lon="5.52181">
        <ele>208</ele>
        <time>2012-03-01T16:07:11Z</time>
      </trkpt>
      <trkpt lat="47.21698" lon="5.52176">
        <ele>209</ele>
        <time>2012-03-01T16:07:18Z</time>
      </trkpt>
      <trkpt lat="47.21693" lon="5.52175">
        <ele>209</ele>
        <time>2012-03-01T16:07:22Z</time>
      </trkpt>
      <trkpt lat="47.21689" lon="5.52173">
        <ele>210</ele>
        <time>2012-03-01T16:07:27Z</time>
      </trkpt>
      <trkpt lat="47.21678" lon="5.52161">
        <ele>211</ele>
        <time>2012-03-01T16:07:41Z</time>
      </trkpt>
      <trkpt lat="47.21677" lon="5.52161">
        <ele>211</ele>
        <time>2012-03-01T16:07:42Z</time>
      </trkpt>
      <trkpt lat="47.21657" lon="5.52153">
        <ele>213</ele>
        <time>2012-03-01T16:08:00Z</time>
      </trkpt>
      <trkpt lat="47.21652" lon="5.52152">
        <ele>214</ele>
        <time>2012-03-01T16:08:07Z</time>
      </trkpt>
      <trkpt lat="47.21642" lon="5.52156">
        <ele>215</ele>
        <time>2012-03-01T16:08:18Z</time>
      </trkpt>
      <trkpt lat="47.21632" lon="5.52155">
        <ele>215</ele>
        <time>2012-03-01T16:08:26Z</time>
      </trkpt>
      <trkpt lat="47.21624" lon="5.52154">
        <ele>216</ele>
        <time>2012-03-01T16:08:31Z</time>
      </trkpt>
      <trkpt lat="47.21605" lon="5.52159">
        <ele>216</ele>
        <time>2012-03-01T16:08:46Z</time>
      </trkpt>
      <trkpt lat="47.21584" lon="5.52155">
        <ele>216</ele>
        <time>2012-03-01T16:09:00Z</time>
      </trkpt>
      <trkpt lat="47.21582" lon="5.52157">
        <ele>216</ele>
        <time>2012-03-01T16:09:02Z</time>
      </trkpt>
      <trkpt lat="47.21572" lon="5.52162">
        <ele>217</ele>
        <time>2012-03-01T16:09:10Z</time>
      </trkpt>
      <trkpt lat="47.21571" lon="5.52168">
        <ele>217</ele>
        <time>2012-03-01T16:09:15Z</time>
      </trkpt>
      <trkpt lat="47.2157" lon="5.52181">
        <ele>217</ele>
        <time>2012-03-01T16:09:21Z</time>
      </trkpt>
      <trkpt lat="47.21567" lon="5.52189">
        <ele>217</ele>
        <time>2012-03-01T16:09:25Z</time>
      </trkpt>
      <trkpt lat="47.21551" lon="5.52214">
        <ele>219</ele>
        <time>2012-03-01T16:09:44Z</time>
      </trkpt>
      <trkpt lat="47.2154" lon="5.52232">
        <ele>220</ele>
        <time>2012-03-01T16:09:58Z</time>
      </trkpt>
      <trkpt lat="47.2153" lon="5.52252">
        <ele>221</ele>
        <time>2012-03-01T16:10:13Z</time>
      </trkpt>
      <trkpt lat="47.21523" lon="5.52263">
        <ele>221</ele>
        <time>2012-03-01T16:10:37Z</time>
      </trkpt>
      <trkpt lat="47.21523" lon="5.52263">
        <ele>221</ele>
        <time>2012-03-01T16:10:54Z</time>
      </trkpt>
      <trkpt lat="47.21513" lon="5.52283">
        <ele>222</ele>
        <time>2012-03-01T16:13:09Z</time>
      </trkpt>
      <trkpt lat="47.21503" lon="5.52303">
        <ele>222</ele>
        <time>2012-03-01T16:13:22Z</time>
      </trkpt>
      <trkpt lat="47.21489" lon="5.5233">
        <ele>222</ele>
        <time>2012-03-01T16:13:40Z</time>
      </trkpt>
      <trkpt lat="47.21478" lon="5.52348">
        <ele>222</ele>
        <time>2012-03-01T16:13:53Z</time>
      </trkpt>
      <trkpt lat="47.21471" lon="5.52359">
        <ele>223</ele>
        <time>2012-03-01T16:14:01Z</time>
      </trkpt>
      <trkpt lat="47.21462" lon="5.52378">
        <ele>223</ele>
        <time>2012-03-01T16:14:15Z</time>
      </trkpt>
      <trkpt lat="47.21458" lon="5.52385">
        <ele>223</ele>
        <time>2012-03-01T16:14:19Z</time>
      </trkpt>
      <trkpt lat="47.21457" lon="5.52387">
        <ele>223</ele>
        <time>2012-03-01T16:14:22Z</time>
      </trkpt>
      <trkpt lat="47.21455" lon="5.52389">
        <ele>223</ele>
        <time>2012-03-01T16:14:24Z</time>
      </trkpt>
      <trkpt lat="47.2145" lon="5.52403">
        <ele>223</ele>
        <time>2012-03-01T16:14:33Z</time>
      </trkpt>
      <trkpt lat="47.21448" lon="5.52408">
        <ele>223</ele>
        <time>2012-03-01T16:14:37Z</time>
      </trkpt>
      <trkpt lat="47.21435" lon="5.52426">
        <ele>223</ele>
        <time>2012-03-01T16:14:51Z</time>
      </trkpt>
      <trkpt lat="47.21431" lon="5.52435">
        <ele>224</ele>
        <time>2012-03-01T16:14:58Z</time>
      </trkpt>
      <trkpt lat="47.21429" lon="5.52439">
        <ele>224</ele>
        <time>2012-03-01T16:15:01Z</time>
      </trkpt>
      <trkpt lat="47.21421" lon="5.52454">
        <ele>225</ele>
        <time>2012-03-01T16:15:14Z</time>
      </trkpt>
      <trkpt lat="47.21407" lon="5.52478">
        <ele>226</ele>
        <time>2012-03-01T16:15:30Z</time>
      </trkpt>
      <trkpt lat="47.21399" lon="5.52493">
        <ele>226</ele>
        <time>2012-03-01T16:15:43Z</time>
      </trkpt>
      <trkpt lat="47.21382" lon="5.52518">
        <ele>227</ele>
        <time>2012-03-01T16:16:02Z</time>
      </trkpt>
      <trkpt lat="47.21372" lon="5.52539">
        <ele>228</ele>
        <time>2012-03-01T16:16:17Z</time>
      </trkpt>
      <trkpt lat="47.21366" lon="5.52551">
        <ele>228</ele>
        <time>2012-03-01T16:16:25Z</time>
      </trkpt>
      <trkpt lat="47.21364" lon="5.52555">
        <ele>228</ele>
        <time>2012-03-01T16:16:28Z</time>
      </trkpt>
      <trkpt lat="47.21358" lon="5.52564">
        <ele>229</ele>
        <time>2012-03-01T16:16:34Z</time>
      </trkpt>
      <trkpt lat="47.21344" lon="5.52583">
        <ele>230</ele>
        <time>2012-03-01T16:16:49Z</time>
      </trkpt>
      <trkpt lat="47.21332" lon="5.52602">
        <ele>230</ele>
        <time>2012-03-01T16:17:03Z</time>
      </trkpt>
      <trkpt lat="47.21324" lon="5.52627">
        <ele>232</ele>
        <time>2012-03-01T16:17:19Z</time>
      </trkpt>
      <trkpt lat="47.21317" lon="5.52645">
        <ele>232</ele>
        <time>2012-03-01T16:17:30Z</time>
      </trkpt>
      <trkpt lat="47.21312" lon="5.52662">
        <ele>233</ele>
        <time>2012-03-01T16:17:42Z</time>
      </trkpt>
      <trkpt lat="47.21308" lon="5.52672">
        <ele>234</ele>
        <time>2012-03-01T16:17:49Z</time>
      </trkpt>
      <trkpt lat="47.21306" lon="5.52675">
        <ele>234</ele>
        <time>2012-03-01T16:17:51Z</time>
      </trkpt>
      <trkpt lat="47.21302" lon="5.5268">
        <ele>234</ele>
        <time>2012-03-01T16:17:56Z</time>
      </trkpt>
      <trkpt lat="47.21292" lon="5.52689">
        <ele>234</ele>
        <time>2012-03-01T16:18:04Z</time>
      </trkpt>
      <trkpt lat="47.21276" lon="5.52709">
        <ele>235</ele>
        <time>2012-03-01T16:18:20Z</time>
      </trkpt>
      <trkpt lat="47.21267" lon="5.52711">
        <ele>235</ele>
        <time>2012-03-01T16:18:35Z</time>
      </trkpt>
      <trkpt lat="47.21259" lon="5.52718">
        <ele>236</ele>
        <time>2012-03-01T16:18:43Z</time>
      </trkpt>
      <trkpt lat="47.21256" lon="5.52726">
        <ele>236</ele>
        <time>2012-03-01T16:18:49Z</time>
      </trkpt>
      <trkpt lat="47.21255" lon="5.52729">
        <ele>236</ele>
        <time>2012-03-01T16:18:51Z</time>
      </trkpt>
      <trkpt lat="47.21242" lon="5.52738">
        <ele>237</ele>
        <time>2012-03-01T16:19:04Z</time>
      </trkpt>
      <trkpt lat="47.21231" lon="5.52747">
        <ele>237</ele>
        <time>2012-03-01T16:19:15Z</time>
      </trkpt>
      <trkpt lat="47.21209" lon="5.52764">
        <ele>238</ele>
        <time>2012-03-01T16:19:36Z</time>
      </trkpt>
      <trkpt lat="47.21187" lon="5.52781">
        <ele>238</ele>
        <time>2012-03-01T16:19:55Z</time>
      </trkpt>
      <trkpt lat="47.21165" lon="5.52777">
        <ele>240</ele>
        <time>2012-03-01T16:20:14Z</time>
      </trkpt>
      <trkpt lat="47.21146" lon="5.52772">
        <ele>241</ele>
        <time>2012-03-01T16:20:31Z</time>
      </trkpt>
      <trkpt lat="47.21133" lon="5.52766">
        <ele>243</ele>
        <time>2012-03-01T16:20:45Z</time>
      </trkpt>
      <trkpt lat="47.21111" lon="5.52757">
        <ele>245</ele>
        <time>2012-03-01T16:21:05Z</time>
      </trkpt>
      <trkpt lat="47.2109" lon="5.52749">
        <ele>247</ele>
        <time>2012-03-01T16:21:26Z</time>
      </trkpt>
      <trkpt lat="47.21065" lon="5.52738">
        <ele>250</ele>
        <time>2012-03-01T16:21:48Z</time>
      </trkpt>
      <trkpt lat="47.21048" lon="5.52728">
        <ele>251</ele>
        <time>2012-03-01T16:22:06Z</time>
      </trkpt>
      <trkpt lat="47.21027" lon="5.52724">
        <ele>252</ele>
        <time>2012-03-01T16:22:24Z</time>
      </trkpt>
      <trkpt lat="47.21004" lon="5.52715">
        <ele>254</ele>
        <time>2012-03-01T16:22:45Z</time>
      </trkpt>
      <trkpt lat="47.20978" lon="5.52706">
        <ele>257</ele>
        <time>2012-03-01T16:23:08Z</time>
      </trkpt>
      <trkpt lat="47.20956" lon="5.52696">
        <ele>260</ele>
        <time>2012-03-01T16:23:29Z</time>
      </trkpt>
      <trkpt lat="47.20951" lon="5.52694">
        <ele>260</ele>
        <time>2012-03-01T16:23:34Z</time>
      </trkpt>
      <trkpt lat="47.20935" lon="5.52692">
        <ele>261</ele>
        <time>2012-03-01T16:23:49Z</time>
      </trkpt>
      <trkpt lat="47.20929" lon="5.52692">
        <ele>262</ele>
        <time>2012-03-01T16:23:54Z</time>
      </trkpt>
      <trkpt lat="47.20926" lon="5.52694">
        <ele>262</ele>
        <time>2012-03-01T16:23:57Z</time>
      </trkpt>
      <trkpt lat="47.20908" lon="5.52693">
        <ele>264</ele>
        <time>2012-03-01T16:24:15Z</time>
      </trkpt>
      <trkpt lat="47.20894" lon="5.5269">
        <ele>267</ele>
        <time>2012-03-01T16:24:32Z</time>
      </trkpt>
      <trkpt lat="47.20876" lon="5.52689">
        <ele>269</ele>
        <time>2012-03-01T16:24:51Z</time>
      </trkpt>
      <trkpt lat="47.20869" lon="5.52695">
        <ele>270</ele>
        <time>2012-03-01T16:25:10Z</time>
      </trkpt>
      <trkpt lat="47.20859" lon="5.52668">
        <ele>272</ele>
        <time>2012-03-01T16:27:37Z</time>
      </trkpt>
      <trkpt lat="47.20859" lon="5.52665">
        <ele>272</ele>
        <time>2012-03-01T16:27:39Z</time>
      </trkpt>
      <trkpt lat="47.20856" lon="5.52651">
        <ele>273</ele>
        <time>2012-03-01T16:27:50Z</time>
      </trkpt>
      <trkpt lat="47.20851" lon="5.52633">
        <ele>273</ele>
        <time>2012-03-01T16:28:03Z</time>
      </trkpt>
      <trkpt lat="47.2085" lon="5.5263">
        <ele>273</ele>
        <time>2012-03-01T16:28:05Z</time>
      </trkpt>
      <trkpt lat="47.20835" lon="5.52606">
        <ele>273</ele>
        <time>2012-03-01T16:28:22Z</time>
      </trkpt>
      <trkpt lat="47.20831" lon="5.52597">
        <ele>273</ele>
        <time>2012-03-01T16:28:28Z</time>
      </trkpt>
      <trkpt lat="47.20821" lon="5.52578">
        <ele>274</ele>
        <time>2012-03-01T16:28:43Z</time>
      </trkpt>
      <trkpt lat="47.20812" lon="5.52559">
        <ele>274</ele>
        <time>2012-03-01T16:28:58Z</time>
      </trkpt>
      <trkpt lat="47.20809" lon="5.52548">
        <ele>274</ele>
        <time>2012-03-01T16:29:04Z</time>
      </trkpt>
      <trkpt lat="47.20799" lon="5.52527">
        <ele>274</ele>
        <time>2012-03-01T16:29:15Z</time>
      </trkpt>
      <trkpt lat="47.20794" lon="5.52503">
        <ele>275</ele>
        <time>2012-03-01T16:29:30Z</time>
      </trkpt>
      <trkpt lat="47.20795" lon="5.52499">
        <ele>275</ele>
        <time>2012-03-01T16:29:32Z</time>
      </trkpt>
      <trkpt lat="47.20796" lon="5.52492">
        <ele>275</ele>
        <time>2012-03-01T16:29:35Z</time>
      </trkpt>
      <trkpt lat="47.20798" lon="5.52469">
        <ele>274</ele>
        <time>2012-03-01T16:29:52Z</time>
      </trkpt>
      <trkpt lat="47.20794" lon="5.5243">
        <ele>276</ele>
        <time>2012-03-01T16:30:13Z</time>
      </trkpt>
      <trkpt lat="47.20796" lon="5.5241">
        <ele>276</ele>
        <time>2012-03-01T16:30:27Z</time>
      </trkpt>
      <trkpt lat="47.20795" lon="5.52375">
        <ele>279</ele>
        <time>2012-03-01T16:30:46Z</time>
      </trkpt>
      <trkpt lat="47.20796" lon="5.52349">
        <ele>281</ele>
        <time>2012-03-01T16:31:05Z</time>
      </trkpt>
      <trkpt lat="47.20797" lon="5.52327">
        <ele>283</ele>
        <time>2012-03-01T16:31:21Z</time>
      </trkpt>
      <trkpt lat="47.20798" lon="5.52319">
        <ele>284</ele>
        <time>2012-03-01T16:31:26Z</time>
      </trkpt>
      <trkpt lat="47.208" lon="5.523">
        <ele>285</ele>
        <time>2012-03-01T16:31:37Z</time>
      </trkpt>
      <trkpt lat="47.20802" lon="5.52293">
        <ele>286</ele>
        <time>2012-03-01T16:31:41Z</time>
      </trkpt>
      <trkpt lat="47.20802" lon="5.52272">
        <ele>288</ele>
        <time>2012-03-01T16:31:53Z</time>
      </trkpt>
      <trkpt lat="47.20802" lon="5.5227">
        <ele>288</ele>
        <time>2012-03-01T16:31:54Z</time>
      </trkpt>
      <trkpt lat="47.20796" lon="5.52252">
        <ele>290</ele>
        <time>2012-03-01T16:32:09Z</time>
      </trkpt>
      <trkpt lat="47.20795" lon="5.5224">
        <ele>292</ele>
        <time>2012-03-01T16:32:24Z</time>
      </trkpt>
      <trkpt lat="47.2079" lon="5.52218">
        <ele>295</ele>
        <time>2012-03-01T16:32:42Z</time>
      </trkpt>
      <trkpt lat="47.20785" lon="5.52193">
        <ele>299</ele>
        <time>2012-03-01T16:32:57Z</time>
      </trkpt>
      <trkpt lat="47.20784" lon="5.52188">
        <ele>299</ele>
        <time>2012-03-01T16:32:59Z</time>
      </trkpt>
      <trkpt lat="47.20783" lon="5.52182">
        <ele>300</ele>
        <time>2012-03-01T16:33:02Z</time>
      </trkpt>
      <trkpt lat="47.20779" lon="5.52171">
        <ele>301</ele>
        <time>2012-03-01T16:33:10Z</time>
      </trkpt>
      <trkpt lat="47.20771" lon="5.52156">
        <ele>303</ele>
        <time>2012-03-01T16:33:23Z</time>
      </trkpt>
      <trkpt lat="47.2076" lon="5.52148">
        <ele>305</ele>
        <time>2012-03-01T16:33:34Z</time>
      </trkpt>
      <trkpt lat="47.20749" lon="5.52144">
        <ele>307</ele>
        <time>2012-03-01T16:33:46Z</time>
      </trkpt>
      <trkpt lat="47.20747" lon="5.52142">
        <ele>307</ele>
        <time>2012-03-01T16:33:48Z</time>
      </trkpt>
      <trkpt lat="47.20745" lon="5.52136">
        <ele>307</ele>
        <time>2012-03-01T16:33:51Z</time>
      </trkpt>
      <trkpt lat="47.20743" lon="5.52134">
        <ele>307</ele>
        <time>2012-03-01T16:33:53Z</time>
      </trkpt>
      <trkpt lat="47.20736" lon="5.52133">
        <ele>308</ele>
        <time>2012-03-01T16:33:58Z</time>
      </trkpt>
      <trkpt lat="47.20731" lon="5.52118">
        <ele>310</ele>
        <time>2012-03-01T16:34:07Z</time>
      </trkpt>
      <trkpt lat="47.20726" lon="5.52113">
        <ele>310</ele>
        <time>2012-03-01T16:34:12Z</time>
      </trkpt>
      <trkpt lat="47.20722" lon="5.52083">
        <ele>313</ele>
        <time>2012-03-01T16:34:29Z</time>
      </trkpt>
      <trkpt lat="47.20716" lon="5.52071">
        <ele>313</ele>
        <time>2012-03-01T16:34:38Z</time>
      </trkpt>
      <trkpt lat="47.20708" lon="5.52056">
        <ele>313</ele>
        <time>2012-03-01T16:34:51Z</time>
      </trkpt>
      <trkpt lat="47.20707" lon="5.52051">
        <ele>314</ele>
        <time>2012-03-01T16:34:53Z</time>
      </trkpt>
      <trkpt lat="47.20707" lon="5.52042">
        <ele>314</ele>
        <time>2012-03-01T16:34:58Z</time>
      </trkpt>
      <trkpt lat="47.20708" lon="5.52038">
        <ele>314</ele>
        <time>2012-03-01T16:35:01Z</time>
      </trkpt>
      <trkpt lat="47.20711" lon="5.5201">
        <ele>316</ele>
        <time>2012-03-01T16:35:17Z</time>
      </trkpt>
      <trkpt lat="47.20712" lon="5.52006">
        <ele>316</ele>
        <time>2012-03-01T16:35:19Z</time>
      </trkpt>
      <trkpt lat="47.20717" lon="5.51996">
        <ele>316</ele>
        <time>2012-03-01T16:35:27Z</time>
      </trkpt>
      <trkpt lat="47.20723" lon="5.51983">
        <ele>316</ele>
        <time>2012-03-01T16:35:37Z</time>
      </trkpt>
      <trkpt lat="47.20725" lon="5.5198">
        <ele>316</ele>
        <time>2012-03-01T16:35:39Z</time>
      </trkpt>
      <trkpt lat="47.20725" lon="5.51978">
        <ele>316</ele>
        <time>2012-03-01T16:35:41Z</time>
      </trkpt>
      <trkpt lat="47.20731" lon="5.51954">
        <ele>316</ele>
        <time>2012-03-01T16:35:56Z</time>
      </trkpt>
      <trkpt lat="47.20728" lon="5.51938">
        <ele>315</ele>
        <time>2012-03-01T16:36:06Z</time>
      </trkpt>
      <trkpt lat="47.20729" lon="5.51921">
        <ele>315</ele>
        <time>2012-03-01T16:36:15Z</time>
      </trkpt>
      <trkpt lat="47.20734" lon="5.51907">
        <ele>315</ele>
        <time>2012-03-01T16:36:24Z</time>
      </trkpt>
      <trkpt lat="47.20731" lon="5.51883">
        <ele>314</ele>
        <time>2012-03-01T16:36:38Z</time>
      </trkpt>
      <trkpt lat="47.20724" lon="5.51847">
        <ele>314</ele>
        <time>2012-03-01T16:37:00Z</time>
      </trkpt>
      <trkpt lat="47.20725" lon="5.51836">
        <ele>313</ele>
        <time>2012-03-01T16:37:07Z</time>
      </trkpt>
      <trkpt lat="47.20723" lon="5.5181">
        <ele>312</ele>
        <time>2012-03-01T16:37:21Z</time>
      </trkpt>
      <trkpt lat="47.2072" lon="5.51777">
        <ele>311</ele>
        <time>2012-03-01T16:37:37Z</time>
      </trkpt>
      <trkpt lat="47.20722" lon="5.5177">
        <ele>311</ele>
        <time>2012-03-01T16:37:41Z</time>
      </trkpt>
      <trkpt lat="47.20721" lon="5.51754">
        <ele>311</ele>
        <time>2012-03-01T16:37:59Z</time>
      </trkpt>
      <trkpt lat="47.20723" lon="5.51752">
        <ele>311</ele>
        <time>2012-03-01T16:40:52Z</time>
      </trkpt>
      <trkpt lat="47.20723" lon="5.51753">
        <ele>312</ele>
        <time>2012-03-01T16:41:08Z</time>
      </trkpt>
      <trkpt lat="47.20723" lon="5.51754">
        <ele>311</ele>
        <time>2012-03-01T16:41:29Z</time>
      </trkpt>
      <trkpt lat="47.20723" lon="5.51754">
        <ele>315</ele>
        <time>2012-03-01T16:41:49Z</time>
      </trkpt>
      <trkpt lat="47.20723" lon="5.51754">
        <ele>312</ele>
        <time>2012-03-01T16:41:50Z</time>
      </trkpt>
      <trkpt lat="47.20723" lon="5.51752">
        <ele>311</ele>
        <time>2012-03-01T16:44:21Z</time>
      </trkpt>
      <trkpt lat="47.20718" lon="5.51739">
        <ele>309</ele>
        <time>2012-03-01T16:47:13Z</time>
      </trkpt>
      <trkpt lat="47.20705" lon="5.51719">
        <ele>306</ele>
        <time>2012-03-01T16:47:28Z</time>
      </trkpt>
      <trkpt lat="47.20705" lon="5.51716">
        <ele>306</ele>
        <time>2012-03-01T16:47:30Z</time>
      </trkpt>
      <trkpt lat="47.20695" lon="5.51692">
        <ele>303</ele>
        <time>2012-03-01T16:47:48Z</time>
      </trkpt>
      <trkpt lat="47.20689" lon="5.51669">
        <ele>300</ele>
        <time>2012-03-01T16:48:02Z</time>
      </trkpt>
      <trkpt lat="47.20682" lon="5.51651">
        <ele>297</ele>
        <time>2012-03-01T16:48:16Z</time>
      </trkpt>
      <trkpt lat="47.20671" lon="5.51634">
        <ele>293</ele>
        <time>2012-03-01T16:48:31Z</time>
      </trkpt>
      <trkpt lat="47.20662" lon="5.51621">
        <ele>290</ele>
        <time>2012-03-01T16:48:45Z</time>
      </trkpt>
      <trkpt lat="47.20649" lon="5.51605">
        <ele>288</ele>
        <time>2012-03-01T16:49:00Z</time>
      </trkpt>
      <trkpt lat="47.20649" lon="5.51603">
        <ele>287</ele>
        <time>2012-03-01T16:49:01Z</time>
      </trkpt>
      <trkpt lat="47.20639" lon="5.51587">
        <ele>285</ele>
        <time>2012-03-01T16:49:14Z</time>
      </trkpt>
      <trkpt lat="47.20636" lon="5.51577">
        <ele>284</ele>
        <time>2012-03-01T16:49:23Z</time>
      </trkpt>
      <trkpt lat="47.20631" lon="5.51568">
        <ele>283</ele>
        <time>2012-03-01T16:49:30Z</time>
      </trkpt>
      <trkpt lat="47.20621" lon="5.51552">
        <ele>281</ele>
        <time>2012-03-01T16:49:42Z</time>
      </trkpt>
      <trkpt lat="47.20612" lon="5.51548">
        <ele>281</ele>
        <time>2012-03-01T16:49:51Z</time>
      </trkpt>
      <trkpt lat="47.20603" lon="5.51535">
        <ele>280</ele>
        <time>2012-03-01T16:50:02Z</time>
      </trkpt>
      <trkpt lat="47.20589" lon="5.51518">
        <ele>278</ele>
        <time>2012-03-01T16:50:18Z</time>
      </trkpt>
      <trkpt lat="47.20586" lon="5.51514">
        <ele>278</ele>
        <time>2012-03-01T16:50:22Z</time>
      </trkpt>
      <trkpt lat="47.20582" lon="5.5151">
        <ele>278</ele>
        <time>2012-03-01T16:50:26Z</time>
      </trkpt>
      <trkpt lat="47.20576" lon="5.5148">
        <ele>275</ele>
        <time>2012-03-01T16:50:45Z</time>
      </trkpt>
      <trkpt lat="47.20564" lon="5.51461">
        <ele>272</ele>
        <time>2012-03-01T16:51:06Z</time>
      </trkpt>
      <trkpt lat="47.20558" lon="5.51438">
        <ele>269</ele>
        <time>2012-03-01T16:51:24Z</time>
      </trkpt>
      <trkpt lat="47.2055" lon="5.51418">
        <ele>266</ele>
        <time>2012-03-01T16:51:40Z</time>
      </trkpt>
      <trkpt lat="47.20538" lon="5.51399">
        <ele>264</ele>
        <time>2012-03-01T16:51:56Z</time>
      </trkpt>
      <trkpt lat="47.20529" lon="5.51384">
        <ele>263</ele>
        <time>2012-03-01T16:52:09Z</time>
      </trkpt>
      <trkpt lat="47.20524" lon="5.51376">
        <ele>262</ele>
        <time>2012-03-01T16:52:16Z</time>
      </trkpt>
      <trkpt lat="47.20515" lon="5.51346">
        <ele>260</ele>
        <time>2012-03-01T16:52:34Z</time>
      </trkpt>
      <trkpt lat="47.20511" lon="5.5132">
        <ele>258</ele>
        <time>2012-03-01T16:52:51Z</time>
      </trkpt>
      <trkpt lat="47.20509" lon="5.51298">
        <ele>256</ele>
        <time>2012-03-01T16:53:09Z</time>
      </trkpt>
      <trkpt lat="47.20509" lon="5.51289">
        <ele>255</ele>
        <time>2012-03-01T16:53:43Z</time>
      </trkpt>
      <trkpt lat="47.20521" lon="5.51273">
        <ele>252</ele>
        <time>2012-03-01T16:53:58Z</time>
      </trkpt>
      <trkpt lat="47.20535" lon="5.51265">
        <ele>251</ele>
        <time>2012-03-01T16:54:12Z</time>
      </trkpt>
      <trkpt lat="47.2054" lon="5.51262">
        <ele>251</ele>
        <time>2012-03-01T16:54:16Z</time>
      </trkpt>
      <trkpt lat="47.20543" lon="5.5126">
        <ele>251</ele>
        <time>2012-03-01T16:54:18Z</time>
      </trkpt>
      <trkpt lat="47.20548" lon="5.51255">
        <ele>250</ele>
        <time>2012-03-01T16:54:22Z</time>
      </trkpt>
      <trkpt lat="47.20551" lon="5.5125">
        <ele>250</ele>
        <time>2012-03-01T16:54:26Z</time>
      </trkpt>
      <trkpt lat="47.20574" lon="5.51222">
        <ele>250</ele>
        <time>2012-03-01T16:54:49Z</time>
      </trkpt>
      <trkpt lat="47.20593" lon="5.51204">
        <ele>250</ele>
        <time>2012-03-01T16:55:08Z</time>
      </trkpt>
      <trkpt lat="47.20594" lon="5.51198">
        <ele>250</ele>
        <time>2012-03-01T16:55:13Z</time>
      </trkpt>
      <trkpt lat="47.20595" lon="5.51189">
        <ele>251</ele>
        <time>2012-03-01T16:55:18Z</time>
      </trkpt>
      <trkpt lat="47.20596" lon="5.51186">
        <ele>250</ele>
        <time>2012-03-01T16:55:20Z</time>
      </trkpt>
      <trkpt lat="47.20597" lon="5.51183">
        <ele>250</ele>
        <time>2012-03-01T16:55:22Z</time>
      </trkpt>
      <trkpt lat="47.20614" lon="5.51163">
        <ele>250</ele>
        <time>2012-03-01T16:55:40Z</time>
      </trkpt>
      <trkpt lat="47.20619" lon="5.51159">
        <ele>250</ele>
        <time>2012-03-01T16:55:44Z</time>
      </trkpt>
      <trkpt lat="47.2062" lon="5.51154">
        <ele>251</ele>
        <time>2012-03-01T16:55:47Z</time>
      </trkpt>
      <trkpt lat="47.20634" lon="5.51143">
        <ele>250</ele>
        <time>2012-03-01T16:55:59Z</time>
      </trkpt>
      <trkpt lat="47.20647" lon="5.51123">
        <ele>250</ele>
        <time>2012-03-01T16:56:16Z</time>
      </trkpt>
      <trkpt lat="47.20655" lon="5.5111">
        <ele>250</ele>
        <time>2012-03-01T16:56:25Z</time>
      </trkpt>
      <trkpt lat="47.20673" lon="5.51088">
        <ele>250</ele>
        <time>2012-03-01T16:56:44Z</time>
      </trkpt>
      <trkpt lat="47.20686" lon="5.51078">
        <ele>249</ele>
        <time>2012-03-01T16:56:55Z</time>
      </trkpt>
      <trkpt lat="47.20707" lon="5.51064">
        <ele>249</ele>
        <time>2012-03-01T16:57:15Z</time>
      </trkpt>
      <trkpt lat="47.20712" lon="5.5106">
        <ele>248</ele>
        <time>2012-03-01T16:57:19Z</time>
      </trkpt>
      <trkpt lat="47.2071" lon="5.51035">
        <ele>248</ele>
        <time>2012-03-01T16:57:35Z</time>
      </trkpt>
      <trkpt lat="47.20696" lon="5.51017">
        <ele>249</ele>
        <time>2012-03-01T16:57:52Z</time>
      </trkpt>
      <trkpt lat="47.20685" lon="5.51006">
        <ele>249</ele>
        <time>2012-03-01T16:58:04Z</time>
      </trkpt>
      <trkpt lat="47.20666" lon="5.50985">
        <ele>250</ele>
        <time>2012-03-01T16:58:26Z</time>
      </trkpt>
      <trkpt lat="47.20644" lon="5.5096">
        <ele>251</ele>
        <time>2012-03-01T16:58:50Z</time>
      </trkpt>
      <trkpt lat="47.20642" lon="5.50957">
        <ele>251</ele>
        <time>2012-03-01T16:58:52Z</time>
      </trkpt>
      <trkpt lat="47.20638" lon="5.50954">
        <ele>252</ele>
        <time>2012-03-01T16:58:56Z</time>
      </trkpt>
      <trkpt lat="47.20613" lon="5.5093">
        <ele>252</ele>
        <time>2012-03-01T16:59:23Z</time>
      </trkpt>
      <trkpt lat="47.20592" lon="5.50914">
        <ele>254</ele>
        <time>2012-03-01T16:59:44Z</time>
      </trkpt>
      <trkpt lat="47.20575" lon="5.50903">
        <ele>254</ele>
        <time>2012-03-01T16:59:59Z</time>
      </trkpt>
      <trkpt lat="47.20559" lon="5.50874">
        <ele>254</ele>
        <time>2012-03-01T17:00:20Z</time>
      </trkpt>
      <trkpt lat="47.2055" lon="5.5084">
        <ele>254</ele>
        <time>2012-03-01T17:00:40Z</time>
      </trkpt>
      <trkpt lat="47.20538" lon="5.50812">
        <ele>253</ele>
        <time>2012-03-01T17:00:58Z</time>
      </trkpt>
      <trkpt lat="47.20524" lon="5.50778">
        <ele>252</ele>
        <time>2012-03-01T17:01:19Z</time>
      </trkpt>
      <trkpt lat="47.20522" lon="5.50734">
        <ele>250</ele>
        <time>2012-03-01T17:01:43Z</time>
      </trkpt>
      <trkpt lat="47.20527" lon="5.50675">
        <ele>248</ele>
        <time>2012-03-01T17:02:15Z</time>
      </trkpt>
      <trkpt lat="47.20524" lon="5.50616">
        <ele>245</ele>
        <time>2012-03-01T17:02:46Z</time>
      </trkpt>
      <trkpt lat="47.20511" lon="5.50567">
        <ele>245</ele>
        <time>2012-03-01T17:03:15Z</time>
      </trkpt>
      <trkpt lat="47.2049" lon="5.50528">
        <ele>244</ele>
        <time>2012-03-01T17:03:42Z</time>
      </trkpt>
      <trkpt lat="47.20467" lon="5.50487">
        <ele>243</ele>
        <time>2012-03-01T17:04:10Z</time>
      </trkpt>
      <trkpt lat="47.20452" lon="5.50455">
        <ele>242</ele>
        <time>2012-03-01T17:04:31Z</time>
      </trkpt>
      <trkpt lat="47.2044" lon="5.50435">
        <ele>242</ele>
        <time>2012-03-01T17:04:49Z</time>
      </trkpt>
      <trkpt lat="47.20432" lon="5.50444">
        <ele>243</ele>
        <time>2012-03-01T17:05:04Z</time>
      </trkpt>
      <trkpt lat="47.20431" lon="5.50445">
        <ele>243</ele>
        <time>2012-03-01T17:05:05Z</time>
      </trkpt>
      <trkpt lat="47.20422" lon="5.50464">
        <ele>244</ele>
        <time>2012-03-01T17:05:21Z</time>
      </trkpt>
      <trkpt lat="47.20409" lon="5.50482">
        <ele>245</ele>
        <time>2012-03-01T17:05:34Z</time>
      </trkpt>
      <trkpt lat="47.204" lon="5.50503">
        <ele>246</ele>
        <time>2012-03-01T17:05:49Z</time>
      </trkpt>
      <trkpt lat="47.20391" lon="5.50521">
        <ele>247</ele>
        <time>2012-03-01T17:06:03Z</time>
      </trkpt>
      <trkpt lat="47.20379" lon="5.50549">
        <ele>248</ele>
        <time>2012-03-01T17:06:21Z</time>
      </trkpt>
      <trkpt lat="47.20376" lon="5.50559">
        <ele>248</ele>
        <time>2012-03-01T17:06:26Z</time>
      </trkpt>
      <trkpt lat="47.20366" lon="5.50583">
        <ele>248</ele>
        <time>2012-03-01T17:06:41Z</time>
      </trkpt>
      <trkpt lat="47.20354" lon="5.50621">
        <ele>249</ele>
        <time>2012-03-01T17:07:02Z</time>
      </trkpt>
      <trkpt lat="47.20353" lon="5.50623">
        <ele>249</ele>
        <time>2012-03-01T17:07:03Z</time>
      </trkpt>
      <trkpt lat="47.20348" lon="5.50636">
        <ele>249</ele>
        <time>2012-03-01T17:07:11Z</time>
      </trkpt>
      <trkpt lat="47.20342" lon="5.50663">
        <ele>250</ele>
        <time>2012-03-01T17:07:27Z</time>
      </trkpt>
      <trkpt lat="47.20333" lon="5.50693">
        <ele>252</ele>
        <time>2012-03-01T17:07:46Z</time>
      </trkpt>
      <trkpt lat="47.20327" lon="5.50716">
        <ele>252</ele>
        <time>2012-03-01T17:08:00Z</time>
      </trkpt>
      <trkpt lat="47.20326" lon="5.50718">
        <ele>252</ele>
        <time>2012-03-01T17:08:01Z</time>
      </trkpt>
      <trkpt lat="47.2032" lon="5.5073">
        <ele>252</ele>
        <time>2012-03-01T17:08:09Z</time>
      </trkpt>
      <trkpt lat="47.20319" lon="5.50734">
        <ele>252</ele>
        <time>2012-03-01T17:08:11Z</time>
      </trkpt>
      <trkpt lat="47.20314" lon="5.50759">
        <ele>253</ele>
        <time>2012-03-01T17:08:27Z</time>
      </trkpt>
      <trkpt lat="47.20314" lon="5.50784">
        <ele>254</ele>
        <time>2012-03-01T17:08:42Z</time>
      </trkpt>
      <trkpt lat="47.20311" lon="5.50793">
        <ele>254</ele>
        <time>2012-03-01T17:09:01Z</time>
      </trkpt>
      <trkpt lat="47.20312" lon="5.50797">
        <ele>254</ele>
        <time>2012-03-01T17:09:33Z</time>
      </trkpt>
      <trkpt lat="47.20309" lon="5.508">
        <ele>254</ele>
        <time>2012-03-01T17:11:37Z</time>
      </trkpt>
      <trkpt lat="47.20309" lon="5.50821">
        <ele>253</ele>
        <time>2012-03-01T17:11:56Z</time>
      </trkpt>
      <trkpt lat="47.20304" lon="5.50844">
        <ele>251</ele>
        <time>2012-03-01T17:12:11Z</time>
      </trkpt>
      <trkpt lat="47.20301" lon="5.50865">
        <ele>249</ele>
        <time>2012-03-01T17:12:26Z</time>
      </trkpt>
      <trkpt lat="47.20299" lon="5.50873">
        <ele>248</ele>
        <time>2012-03-01T17:12:31Z</time>
      </trkpt>
      <trkpt lat="47.20299" lon="5.50878">
        <ele>248</ele>
        <time>2012-03-01T17:12:34Z</time>
      </trkpt>
      <trkpt lat="47.20291" lon="5.50908">
        <ele>245</ele>
        <time>2012-03-01T17:12:50Z</time>
      </trkpt>
      <trkpt lat="47.20289" lon="5.50923">
        <ele>244</ele>
        <time>2012-03-01T17:13:00Z</time>
      </trkpt>
      <trkpt lat="47.20288" lon="5.50927">
        <ele>243</ele>
        <time>2012-03-01T17:13:03Z</time>
      </trkpt>
      <trkpt lat="47.20286" lon="5.50937">
        <ele>242</ele>
        <time>2012-03-01T17:13:09Z</time>
      </trkpt>
      <trkpt lat="47.20285" lon="5.5094">
        <ele>242</ele>
        <time>2012-03-01T17:13:11Z</time>
      </trkpt>
      <trkpt lat="47.2028" lon="5.50962">
        <ele>239</ele>
        <time>2012-03-01T17:13:25Z</time>
      </trkpt>
      <trkpt lat="47.20275" lon="5.50983">
        <ele>237</ele>
        <time>2012-03-01T17:13:38Z</time>
      </trkpt>
      <trkpt lat="47.2027" lon="5.51008">
        <ele>235</ele>
        <time>2012-03-01T17:13:53Z</time>
      </trkpt>
      <trkpt lat="47.20267" lon="5.51045">
        <ele>231</ele>
        <time>2012-03-01T17:14:15Z</time>
      </trkpt>
      <trkpt lat="47.20267" lon="5.51052">
        <ele>231</ele>
        <time>2012-03-01T17:14:19Z</time>
      </trkpt>
      <trkpt lat="47.20265" lon="5.51069">
        <ele>231</ele>
        <time>2012-03-01T17:14:29Z</time>
      </trkpt>
      <trkpt lat="47.20265" lon="5.51076">
        <ele>230</ele>
        <time>2012-03-01T17:14:33Z</time>
      </trkpt>
      <trkpt lat="47.20265" lon="5.51097">
        <ele>229</ele>
        <time>2012-03-01T17:14:44Z</time>
      </trkpt>
      <trkpt lat="47.20265" lon="5.51107">
        <ele>228</ele>
        <time>2012-03-01T17:14:52Z</time>
      </trkpt>
      <trkpt lat="47.20255" lon="5.51132">
        <ele>226</ele>
        <time>2012-03-01T17:15:08Z</time>
      </trkpt>
      <trkpt lat="47.20243" lon="5.51147">
        <ele>225</ele>
        <time>2012-03-01T17:15:19Z</time>
      </trkpt>
      <trkpt lat="47.20228" lon="5.51172">
        <ele>223</ele>
        <time>2012-03-01T17:15:37Z</time>
      </trkpt>
      <trkpt lat="47.20215" lon="5.51195">
        <ele>221</ele>
        <time>2012-03-01T17:15:55Z</time>
      </trkpt>
      <trkpt lat="47.2021" lon="5.51204">
        <ele>221</ele>
        <time>2012-03-01T17:16:02Z</time>
      </trkpt>
      <trkpt lat="47.20197" lon="5.51223">
        <ele>221</ele>
        <time>2012-03-01T17:16:14Z</time>
      </trkpt>
      <trkpt lat="47.20193" lon="5.51234">
        <ele>221</ele>
        <time>2012-03-01T17:16:19Z</time>
      </trkpt>
      <trkpt lat="47.20193" lon="5.51238">
        <ele>220</ele>
        <time>2012-03-01T17:16:21Z</time>
      </trkpt>
      <trkpt lat="47.20183" lon="5.51263">
        <ele>220</ele>
        <time>2012-03-01T17:16:38Z</time>
      </trkpt>
      <trkpt lat="47.20178" lon="5.51275">
        <ele>220</ele>
        <time>2012-03-01T17:16:44Z</time>
      </trkpt>
      <trkpt lat="47.20179" lon="5.51281">
        <ele>220</ele>
        <time>2012-03-01T17:16:47Z</time>
      </trkpt>
      <trkpt lat="47.20175" lon="5.51287">
        <ele>220</ele>
        <time>2012-03-01T17:16:51Z</time>
      </trkpt>
      <trkpt lat="47.2017" lon="5.51307">
        <ele>220</ele>
        <time>2012-03-01T17:17:03Z</time>
      </trkpt>
      <trkpt lat="47.20167" lon="5.51318">
        <ele>220</ele>
        <time>2012-03-01T17:17:09Z</time>
      </trkpt>
      <trkpt lat="47.20166" lon="5.51322">
        <ele>220</ele>
        <time>2012-03-01T17:17:11Z</time>
      </trkpt>
      <trkpt lat="47.20164" lon="5.51338">
        <ele>220</ele>
        <time>2012-03-01T17:17:20Z</time>
      </trkpt>
      <trkpt lat="47.20164" lon="5.51345">
        <ele>220</ele>
        <time>2012-03-01T17:17:24Z</time>
      </trkpt>
      <trkpt lat="47.20153" lon="5.51378">
        <ele>220</ele>
        <time>2012-03-01T17:17:43Z</time>
      </trkpt>
      <trkpt lat="47.20146" lon="5.51409">
        <ele>221</ele>
        <time>2012-03-01T17:18:01Z</time>
      </trkpt>
      <trkpt lat="47.20144" lon="5.51418">
        <ele>221</ele>
        <time>2012-03-01T17:18:05Z</time>
      </trkpt>
      <trkpt lat="47.20135" lon="5.5144">
        <ele>221</ele>
        <time>2012-03-01T17:18:21Z</time>
      </trkpt>
      <trkpt lat="47.20124" lon="5.51454">
        <ele>221</ele>
        <time>2012-03-01T17:18:32Z</time>
      </trkpt>
      <trkpt lat="47.20114" lon="5.51465">
        <ele>222</ele>
        <time>2012-03-01T17:18:42Z</time>
      </trkpt>
      <trkpt lat="47.20096" lon="5.51483">
        <ele>223</ele>
        <time>2012-03-01T17:18:59Z</time>
      </trkpt>
      <trkpt lat="47.20074" lon="5.51511">
        <ele>223</ele>
        <time>2012-03-01T17:19:21Z</time>
      </trkpt>
      <trkpt lat="47.20061" lon="5.51537">
        <ele>224</ele>
        <time>2012-03-01T17:19:39Z</time>
      </trkpt>
      <trkpt lat="47.20043" lon="5.51574">
        <ele>225</ele>
        <time>2012-03-01T17:20:03Z</time>
      </trkpt>
      <trkpt lat="47.20037" lon="5.51585">
        <ele>226</ele>
        <time>2012-03-01T17:20:10Z</time>
      </trkpt>
      <trkpt lat="47.20024" lon="5.51606">
        <ele>226</ele>
        <time>2012-03-01T17:20:26Z</time>
      </trkpt>
      <trkpt lat="47.2001" lon="5.51623">
        <ele>227</ele>
        <time>2012-03-01T17:20:41Z</time>
      </trkpt>
      <trkpt lat="47.20009" lon="5.51623">
        <ele>227</ele>
        <time>2012-03-01T17:20:42Z</time>
      </trkpt>
      <trkpt lat="47.20002" lon="5.51631">
        <ele>227</ele>
        <time>2012-03-01T17:20:50Z</time>
      </trkpt>
      <trkpt lat="47.19987" lon="5.5165">
        <ele>227</ele>
        <time>2012-03-01T17:21:05Z</time>
      </trkpt>
      <trkpt lat="47.19973" lon="5.51665">
        <ele>228</ele>
        <time>2012-03-01T17:21:18Z</time>
      </trkpt>
      <trkpt lat="47.19953" lon="5.51679">
        <ele>228</ele>
        <time>2012-03-01T17:21:34Z</time>
      </trkpt>
      <trkpt lat="47.19936" lon="5.51694">
        <ele>229</ele>
        <time>2012-03-01T17:21:51Z</time>
      </trkpt>
      <trkpt lat="47.1992" lon="5.51715">
        <ele>231</ele>
        <time>2012-03-01T17:22:08Z</time>
      </trkpt>
      <trkpt lat="47.19909" lon="5.5173">
        <ele>232</ele>
        <time>2012-03-01T17:22:20Z</time>
      </trkpt>
      <trkpt lat="47.19895" lon="5.51756">
        <ele>233</ele>
        <time>2012-03-01T17:22:39Z</time>
      </trkpt>
      <trkpt lat="47.19887" lon="5.51776">
        <ele>234</ele>
        <time>2012-03-01T17:22:51Z</time>
      </trkpt>
      <trkpt lat="47.19872" lon="5.51807">
        <ele>235</ele>
        <time>2012-03-01T17:23:12Z</time>
      </trkpt>
      <trkpt lat="47.19864" lon="5.51833">
        <ele>236</ele>
        <time>2012-03-01T17:23:27Z</time>
      </trkpt>
      <trkpt lat="47.19863" lon="5.51843">
        <ele>236</ele>
        <time>2012-03-01T17:23:33Z</time>
      </trkpt>
      <trkpt lat="47.19863" lon="5.51846">
        <ele>236</ele>
        <time>2012-03-01T17:23:35Z</time>
      </trkpt>
      <trkpt lat="47.19861" lon="5.5186">
        <ele>235</ele>
        <time>2012-03-01T17:23:43Z</time>
      </trkpt>
      <trkpt lat="47.19862" lon="5.51876">
        <ele>234</ele>
        <time>2012-03-01T17:23:55Z</time>
      </trkpt>
      <trkpt lat="47.19857" lon="5.51897">
        <ele>233</ele>
        <time>2012-03-01T17:24:08Z</time>
      </trkpt>
      <trkpt lat="47.19849" lon="5.51932">
        <ele>232</ele>
        <time>2012-03-01T17:24:24Z</time>
      </trkpt>
      <trkpt lat="47.19839" lon="5.51966">
        <ele>231</ele>
        <time>2012-03-01T17:24:44Z</time>
      </trkpt>
      <trkpt lat="47.19831" lon="5.51994">
        <ele>230</ele>
        <time>2012-03-01T17:25:00Z</time>
      </trkpt>
      <trkpt lat="47.19825" lon="5.5203">
        <ele>229</ele>
        <time>2012-03-01T17:25:21Z</time>
      </trkpt>
      <trkpt lat="47.19815" lon="5.52054">
        <ele>229</ele>
        <time>2012-03-01T17:25:36Z</time>
      </trkpt>
      <trkpt lat="47.19803" lon="5.52077">
        <ele>228</ele>
        <time>2012-03-01T17:25:50Z</time>
      </trkpt>
      <trkpt lat="47.19788" lon="5.52108">
        <ele>228</ele>
        <time>2012-03-01T17:26:11Z</time>
      </trkpt>
      <trkpt lat="47.19776" lon="5.52135">
        <ele>228</ele>
        <time>2012-03-01T17:26:28Z</time>
      </trkpt>
      <trkpt lat="47.19758" lon="5.52165">
        <ele>228</ele>
        <time>2012-03-01T17:26:50Z</time>
      </trkpt>
      <trkpt lat="47.19746" lon="5.52173">
        <ele>228</ele>
        <time>2012-03-01T17:26:59Z</time>
      </trkpt>
      <trkpt lat="47.19744" lon="5.52177">
        <ele>228</ele>
        <time>2012-03-01T17:27:02Z</time>
      </trkpt>
      <trkpt lat="47.19735" lon="5.5219">
        <ele>228</ele>
        <time>2012-03-01T17:27:13Z</time>
      </trkpt>
      <trkpt lat="47.19725" lon="5.52205">
        <ele>228</ele>
        <time>2012-03-01T17:27:28Z</time>
      </trkpt>
      <trkpt lat="47.19715" lon="5.52225">
        <ele>229</ele>
        <time>2012-03-01T17:27:42Z</time>
      </trkpt>
      <trkpt lat="47.19709" lon="5.52239">
        <ele>230</ele>
        <time>2012-03-01T17:27:51Z</time>
      </trkpt>
      <trkpt lat="47.19706" lon="5.5226">
        <ele>231</ele>
        <time>2012-03-01T17:28:02Z</time>
      </trkpt>
      <trkpt lat="47.19707" lon="5.52274">
        <ele>232</ele>
        <time>2012-03-01T17:28:11Z</time>
      </trkpt>
      <trkpt lat="47.19694" lon="5.52289">
        <ele>233</ele>
        <time>2012-03-01T17:28:24Z</time>
      </trkpt>
      <trkpt lat="47.1969" lon="5.52292">
        <ele>233</ele>
        <time>2012-03-01T17:28:27Z</time>
      </trkpt>
      <trkpt lat="47.19675" lon="5.52302">
        <ele>233</ele>
        <time>2012-03-01T17:28:40Z</time>
      </trkpt>
      <trkpt lat="47.1967" lon="5.52302">
        <ele>232</ele>
        <time>2012-03-01T17:28:48Z</time>
      </trkpt>
      <trkpt lat="47.19666" lon="5.52303">
        <ele>232</ele>
        <time>2012-03-01T17:28:52Z</time>
      </trkpt>
      <trkpt lat="47.19659" lon="5.523">
        <ele>231</ele>
        <time>2012-03-01T17:28:59Z</time>
      </trkpt>
      <trkpt lat="47.19657" lon="5.52311">
        <ele>231</ele>
        <time>2012-03-01T17:29:09Z</time>
      </trkpt>
      <trkpt lat="47.19656" lon="5.52332">
        <ele>232</ele>
        <time>2012-03-01T17:29:25Z</time>
      </trkpt>
      <trkpt lat="47.19657" lon="5.52349">
        <ele>232</ele>
        <time>2012-03-01T17:29:35Z</time>
      </trkpt>
      <trkpt lat="47.1965" lon="5.52362">
        <ele>232</ele>
        <time>2012-03-01T17:29:38Z</time>
      </trkpt>
      <trkpt lat="47.19654" lon="5.52374">
        <ele>232</ele>
        <time>2012-03-01T17:29:43Z</time>
      </trkpt>
      <trkpt lat="47.19639" lon="5.52388">
        <ele>232</ele>
        <time>2012-03-01T17:29:57Z</time>
      </trkpt>
      <trkpt lat="47.19637" lon="5.52391">
        <ele>233</ele>
        <time>2012-03-01T17:30:00Z</time>
      </trkpt>
      <trkpt lat="47.19635" lon="5.52394">
        <ele>232</ele>
        <time>2012-03-01T17:30:03Z</time>
      </trkpt>
      <trkpt lat="47.19633" lon="5.52403">
        <ele>232</ele>
        <time>2012-03-01T17:30:07Z</time>
      </trkpt>
      <trkpt lat="47.19625" lon="5.52427">
        <ele>233</ele>
        <time>2012-03-01T17:30:25Z</time>
      </trkpt>
      <trkpt lat="47.19625" lon="5.52435">
        <ele>233</ele>
        <time>2012-03-01T17:30:42Z</time>
      </trkpt>
      <trkpt lat="47.19625" lon="5.52435">
        <ele>234</ele>
        <time>2012-03-01T17:31:00Z</time>
      </trkpt>
    </trkseg>
  </trk>
</gpx>